<?xml version="1.0" encoding="UTF-8" standalone="no" ?>
<gpx xmlns="http://www.topografix.com/GPX/1/1" xmlns:xsi="http://www.w3.org/2001/XMLSchema-instance" xsi:schemaLocation="http://www.topografix.com/GPX/1/1 http://www.topografix.com/GPX/1/1/gpx.xsd" version="1.1" creator="VisuGPX - https://www.visugpx.com">
  <metadata>
    <name>Grimone, Sucettes de Borne, Col de Lus, Chemin des Templiers</name>
    <desc><![CDATA[Nous avons fait de l'acrobranche pour contourner le torrent de boue au Col de la Péyère (6km). Même si les Sucettes valent le détour, il est possible de rejoindre directement la descente ludique sur la Révolte. Encore beaucoup de boue sur le Chemin des Templiers.]]></desc>
  </metadata>
  <trk>
    <name><![CDATA[26 Grimone, Sucettes de Bornes, Col de Lus, Chemin des Templiers]]></name>
    <trkseg>
      <trkpt lat="44.6967" lon="5.64247">
        <ele>1153.1</ele>
        <time>2011-06-09T06:30:33Z</time>
      </trkpt>
      <trkpt lat="44.69662" lon="5.64487">
        <ele>1164.7</ele>
        <time>2011-06-09T06:31:49Z</time>
      </trkpt>
      <trkpt lat="44.69665" lon="5.64503">
        <ele>1165.8</ele>
        <time>2011-06-09T06:31:54Z</time>
      </trkpt>
      <trkpt lat="44.69675" lon="5.64507">
        <ele>1166.8</ele>
        <time>2011-06-09T06:31:59Z</time>
      </trkpt>
      <trkpt lat="44.69679" lon="5.64498">
        <ele>1167.1</ele>
        <time>2011-06-09T06:32:02Z</time>
      </trkpt>
      <trkpt lat="44.69675" lon="5.64425">
        <ele>1169.8</ele>
        <time>2011-06-09T06:32:23Z</time>
      </trkpt>
      <trkpt lat="44.69703" lon="5.64312">
        <ele>1175.6</ele>
        <time>2011-06-09T06:33:01Z</time>
      </trkpt>
      <trkpt lat="44.69738" lon="5.64268">
        <ele>1179.6</ele>
        <time>2011-06-09T06:33:21Z</time>
      </trkpt>
      <trkpt lat="44.69742" lon="5.64244">
        <ele>1181.3</ele>
        <time>2011-06-09T06:33:28Z</time>
      </trkpt>
      <trkpt lat="44.69712" lon="5.64076">
        <ele>1186.2</ele>
        <time>2011-06-09T06:34:14Z</time>
      </trkpt>
      <trkpt lat="44.69754" lon="5.63816">
        <ele>1195.7</ele>
        <time>2011-06-09T06:35:23Z</time>
      </trkpt>
      <trkpt lat="44.69767" lon="5.63787">
        <ele>1197.2</ele>
        <time>2011-06-09T06:35:32Z</time>
      </trkpt>
      <trkpt lat="44.698" lon="5.63758">
        <ele>1200.5</ele>
        <time>2011-06-09T06:35:47Z</time>
      </trkpt>
      <trkpt lat="44.69827" lon="5.63705">
        <ele>1203.2</ele>
        <time>2011-06-09T06:36:05Z</time>
      </trkpt>
      <trkpt lat="44.69826" lon="5.63614">
        <ele>1207.6</ele>
        <time>2011-06-09T06:36:32Z</time>
      </trkpt>
      <trkpt lat="44.69832" lon="5.63587">
        <ele>1208.9</ele>
        <time>2011-06-09T06:36:40Z</time>
      </trkpt>
      <trkpt lat="44.69885" lon="5.63508">
        <ele>1213.9</ele>
        <time>2011-06-09T06:37:12Z</time>
      </trkpt>
      <trkpt lat="44.69895" lon="5.63466">
        <ele>1216.7</ele>
        <time>2011-06-09T06:37:25Z</time>
      </trkpt>
      <trkpt lat="44.6989" lon="5.63348">
        <ele>1221</ele>
        <time>2011-06-09T06:37:59Z</time>
      </trkpt>
      <trkpt lat="44.69908" lon="5.63325">
        <ele>1222.9</ele>
        <time>2011-06-09T06:38:12Z</time>
      </trkpt>
      <trkpt lat="44.6991" lon="5.63313">
        <ele>1224.9</ele>
        <time>2011-06-09T06:40:15Z</time>
      </trkpt>
      <trkpt lat="44.69937" lon="5.63263">
        <ele>1227.1</ele>
        <time>2011-06-09T06:40:42Z</time>
      </trkpt>
      <trkpt lat="44.69939" lon="5.63215">
        <ele>1230.6</ele>
        <time>2011-06-09T06:41:02Z</time>
      </trkpt>
      <trkpt lat="44.69979" lon="5.63037">
        <ele>1240.9</ele>
        <time>2011-06-09T06:42:07Z</time>
      </trkpt>
      <trkpt lat="44.69977" lon="5.62978">
        <ele>1244.4</ele>
        <time>2011-06-09T06:42:27Z</time>
      </trkpt>
      <trkpt lat="44.69984" lon="5.62971">
        <ele>1246.3</ele>
        <time>2011-06-09T06:42:33Z</time>
      </trkpt>
      <trkpt lat="44.69986" lon="5.62977">
        <ele>1247.5</ele>
        <time>2011-06-09T06:42:36Z</time>
      </trkpt>
      <trkpt lat="44.70035" lon="5.633">
        <ele>1268.1</ele>
        <time>2011-06-09T06:44:48Z</time>
      </trkpt>
      <trkpt lat="44.70031" lon="5.63327">
        <ele>1270.3</ele>
        <time>2011-06-09T06:44:59Z</time>
      </trkpt>
      <trkpt lat="44.70032" lon="5.63336">
        <ele>1270.5</ele>
        <time>2011-06-09T06:45:03Z</time>
      </trkpt>
      <trkpt lat="44.70042" lon="5.63335">
        <ele>1271.7</ele>
        <time>2011-06-09T06:45:09Z</time>
      </trkpt>
      <trkpt lat="44.70051" lon="5.63315">
        <ele>1272.9</ele>
        <time>2011-06-09T06:45:19Z</time>
      </trkpt>
      <trkpt lat="44.70055" lon="5.63127">
        <ele>1287</ele>
        <time>2011-06-09T06:46:41Z</time>
      </trkpt>
      <trkpt lat="44.70102" lon="5.62984">
        <ele>1300</ele>
        <time>2011-06-09T06:47:52Z</time>
      </trkpt>
      <trkpt lat="44.70147" lon="5.62939">
        <ele>1303.2</ele>
        <time>2011-06-09T06:48:25Z</time>
      </trkpt>
      <trkpt lat="44.70182" lon="5.62926">
        <ele>1306.1</ele>
        <time>2011-06-09T06:48:46Z</time>
      </trkpt>
      <trkpt lat="44.70268" lon="5.62924">
        <ele>1312.6</ele>
        <time>2011-06-09T06:49:33Z</time>
      </trkpt>
      <trkpt lat="44.70265" lon="5.62935">
        <ele>1311.9</ele>
        <time>2011-06-09T06:49:39Z</time>
      </trkpt>
      <trkpt lat="44.70193" lon="5.6295">
        <ele>1318.6</ele>
        <time>2011-06-09T06:50:20Z</time>
      </trkpt>
      <trkpt lat="44.7019" lon="5.62955">
        <ele>1318.9</ele>
        <time>2011-06-09T06:51:18Z</time>
      </trkpt>
      <trkpt lat="44.70267" lon="5.62938">
        <ele>1317.3</ele>
        <time>2011-06-09T06:51:39Z</time>
      </trkpt>
      <trkpt lat="44.70277" lon="5.62928">
        <ele>1313.8</ele>
        <time>2011-06-09T06:55:24Z</time>
      </trkpt>
      <trkpt lat="44.70276" lon="5.62928">
        <ele>1314.3</ele>
        <time>2011-06-09T06:59:24Z</time>
      </trkpt>
      <trkpt lat="44.70266" lon="5.62936">
        <ele>1313.8</ele>
        <time>2011-06-09T06:59:32Z</time>
      </trkpt>
      <trkpt lat="44.70185" lon="5.62954">
        <ele>1319.8</ele>
        <time>2011-06-09T07:00:14Z</time>
      </trkpt>
      <trkpt lat="44.70138" lon="5.63001">
        <ele>1324.1</ele>
        <time>2011-06-09T07:00:44Z</time>
      </trkpt>
      <trkpt lat="44.7013" lon="5.6302">
        <ele>1326.4</ele>
        <time>2011-06-09T07:00:59Z</time>
      </trkpt>
      <trkpt lat="44.70138" lon="5.63002">
        <ele>1325.1</ele>
        <time>2011-06-09T07:01:07Z</time>
      </trkpt>
      <trkpt lat="44.70167" lon="5.62968">
        <ele>1322.9</ele>
        <time>2011-06-09T07:01:15Z</time>
      </trkpt>
      <trkpt lat="44.70267" lon="5.62936">
        <ele>1315.7</ele>
        <time>2011-06-09T07:01:33Z</time>
      </trkpt>
      <trkpt lat="44.7034" lon="5.62872">
        <ele>1319.6</ele>
        <time>2011-06-09T07:02:09Z</time>
      </trkpt>
      <trkpt lat="44.70444" lon="5.62694">
        <ele>1323.5</ele>
        <time>2011-06-09T07:03:15Z</time>
      </trkpt>
      <trkpt lat="44.7048" lon="5.62668">
        <ele>1321.9</ele>
        <time>2011-06-09T07:03:32Z</time>
      </trkpt>
      <trkpt lat="44.70571" lon="5.62663">
        <ele>1326.5</ele>
        <time>2011-06-09T07:04:05Z</time>
      </trkpt>
      <trkpt lat="44.70706" lon="5.62585">
        <ele>1333.2</ele>
        <time>2011-06-09T07:05:37Z</time>
      </trkpt>
      <trkpt lat="44.70723" lon="5.62564">
        <ele>1332.7</ele>
        <time>2011-06-09T07:05:57Z</time>
      </trkpt>
      <trkpt lat="44.70741" lon="5.62552">
        <ele>1333.5</ele>
        <time>2011-06-09T07:06:06Z</time>
      </trkpt>
      <trkpt lat="44.70779" lon="5.62539">
        <ele>1340.1</ele>
        <time>2011-06-09T07:06:48Z</time>
      </trkpt>
      <trkpt lat="44.70797" lon="5.62529">
        <ele>1343.4</ele>
        <time>2011-06-09T07:07:05Z</time>
      </trkpt>
      <trkpt lat="44.70819" lon="5.62538">
        <ele>1346.5</ele>
        <time>2011-06-09T07:07:35Z</time>
      </trkpt>
      <trkpt lat="44.70854" lon="5.62545">
        <ele>1350.5</ele>
        <time>2011-06-09T07:08:22Z</time>
      </trkpt>
      <trkpt lat="44.70889" lon="5.6262">
        <ele>1340.7</ele>
        <time>2011-06-09T07:09:01Z</time>
      </trkpt>
      <trkpt lat="44.70895" lon="5.62662">
        <ele>1335.6</ele>
        <time>2011-06-09T07:09:12Z</time>
      </trkpt>
      <trkpt lat="44.70898" lon="5.62816">
        <ele>1332.5</ele>
        <time>2011-06-09T07:09:46Z</time>
      </trkpt>
      <trkpt lat="44.70953" lon="5.63021">
        <ele>1312.9</ele>
        <time>2011-06-09T07:10:25Z</time>
      </trkpt>
      <trkpt lat="44.7096" lon="5.63029">
        <ele>1310.9</ele>
        <time>2011-06-09T07:10:27Z</time>
      </trkpt>
      <trkpt lat="44.71065" lon="5.63076">
        <ele>1314.8</ele>
        <time>2011-06-09T07:11:03Z</time>
      </trkpt>
      <trkpt lat="44.71069" lon="5.63083">
        <ele>1316.5</ele>
        <time>2011-06-09T07:12:41Z</time>
      </trkpt>
      <trkpt lat="44.711" lon="5.63092">
        <ele>1314.4</ele>
        <time>2011-06-09T07:12:51Z</time>
      </trkpt>
      <trkpt lat="44.71187" lon="5.63141">
        <ele>1313.5</ele>
        <time>2011-06-09T07:13:28Z</time>
      </trkpt>
      <trkpt lat="44.71212" lon="5.63143">
        <ele>1312.7</ele>
        <time>2011-06-09T07:13:39Z</time>
      </trkpt>
      <trkpt lat="44.71218" lon="5.63146">
        <ele>1312.9</ele>
        <time>2011-06-09T07:13:42Z</time>
      </trkpt>
      <trkpt lat="44.71246" lon="5.6315">
        <ele>1312</ele>
        <time>2011-06-09T07:13:54Z</time>
      </trkpt>
      <trkpt lat="44.71305" lon="5.63138">
        <ele>1312.6</ele>
        <time>2011-06-09T07:14:17Z</time>
      </trkpt>
      <trkpt lat="44.71366" lon="5.63146">
        <ele>1313.8</ele>
        <time>2011-06-09T07:14:44Z</time>
      </trkpt>
      <trkpt lat="44.71459" lon="5.63185">
        <ele>1317.1</ele>
        <time>2011-06-09T07:15:46Z</time>
      </trkpt>
      <trkpt lat="44.71502" lon="5.63219">
        <ele>1326.6</ele>
        <time>2011-06-09T07:17:18Z</time>
      </trkpt>
      <trkpt lat="44.71502" lon="5.63226">
        <ele>1326.1</ele>
        <time>2011-06-09T07:19:55Z</time>
      </trkpt>
      <trkpt lat="44.71503" lon="5.63219">
        <ele>1326.2</ele>
        <time>2011-06-09T07:26:04Z</time>
      </trkpt>
      <trkpt lat="44.71505" lon="5.63219">
        <ele>1325.7</ele>
        <time>2011-06-09T07:27:20Z</time>
      </trkpt>
      <trkpt lat="44.71505" lon="5.63218">
        <ele>1325.5</ele>
        <time>2011-06-09T07:28:25Z</time>
      </trkpt>
      <trkpt lat="44.71504" lon="5.63215">
        <ele>1324.6</ele>
        <time>2011-06-09T07:29:54Z</time>
      </trkpt>
      <trkpt lat="44.71502" lon="5.63217">
        <ele>1327.6</ele>
        <time>2011-06-09T07:30:58Z</time>
      </trkpt>
      <trkpt lat="44.71498" lon="5.63215">
        <ele>1325.1</ele>
        <time>2011-06-09T07:31:35Z</time>
      </trkpt>
      <trkpt lat="44.71501" lon="5.6322">
        <ele>1326</ele>
        <time>2011-06-09T07:32:13Z</time>
      </trkpt>
      <trkpt lat="44.71503" lon="5.63219">
        <ele>1325.7</ele>
        <time>2011-06-09T07:33:14Z</time>
      </trkpt>
      <trkpt lat="44.71498" lon="5.63231">
        <ele>1326.5</ele>
        <time>2011-06-09T07:34:51Z</time>
      </trkpt>
      <trkpt lat="44.71507" lon="5.63217">
        <ele>1326.5</ele>
        <time>2011-06-09T07:38:19Z</time>
      </trkpt>
      <trkpt lat="44.71505" lon="5.63217">
        <ele>1326.5</ele>
        <time>2011-06-09T07:40:15Z</time>
      </trkpt>
      <trkpt lat="44.71509" lon="5.63215">
        <ele>1326.7</ele>
        <time>2011-06-09T07:40:31Z</time>
      </trkpt>
      <trkpt lat="44.71524" lon="5.63188">
        <ele>1327.1</ele>
        <time>2011-06-09T07:40:59Z</time>
      </trkpt>
      <trkpt lat="44.71507" lon="5.63129">
        <ele>1321.2</ele>
        <time>2011-06-09T07:41:18Z</time>
      </trkpt>
      <trkpt lat="44.71509" lon="5.63111">
        <ele>1322.6</ele>
        <time>2011-06-09T07:41:25Z</time>
      </trkpt>
      <trkpt lat="44.71498" lon="5.63081">
        <ele>1325.6</ele>
        <time>2011-06-09T07:41:38Z</time>
      </trkpt>
      <trkpt lat="44.71492" lon="5.6302">
        <ele>1326</ele>
        <time>2011-06-09T07:42:06Z</time>
      </trkpt>
      <trkpt lat="44.71486" lon="5.63001">
        <ele>1328.8</ele>
        <time>2011-06-09T07:42:16Z</time>
      </trkpt>
      <trkpt lat="44.71468" lon="5.62929">
        <ele>1332.5</ele>
        <time>2011-06-09T07:42:50Z</time>
      </trkpt>
      <trkpt lat="44.71466" lon="5.62906">
        <ele>1333.6</ele>
        <time>2011-06-09T07:43:00Z</time>
      </trkpt>
      <trkpt lat="44.71453" lon="5.62863">
        <ele>1335.6</ele>
        <time>2011-06-09T07:43:32Z</time>
      </trkpt>
      <trkpt lat="44.71448" lon="5.6281">
        <ele>1334.7</ele>
        <time>2011-06-09T07:44:33Z</time>
      </trkpt>
      <trkpt lat="44.71444" lon="5.62794">
        <ele>1335.5</ele>
        <time>2011-06-09T07:44:39Z</time>
      </trkpt>
      <trkpt lat="44.71433" lon="5.62626">
        <ele>1339.8</ele>
        <time>2011-06-09T07:45:33Z</time>
      </trkpt>
      <trkpt lat="44.71421" lon="5.62519">
        <ele>1335.2</ele>
        <time>2011-06-09T07:45:59Z</time>
      </trkpt>
      <trkpt lat="44.71423" lon="5.62403">
        <ele>1333.9</ele>
        <time>2011-06-09T07:46:29Z</time>
      </trkpt>
      <trkpt lat="44.71426" lon="5.62393">
        <ele>1333.8</ele>
        <time>2011-06-09T07:46:32Z</time>
      </trkpt>
      <trkpt lat="44.71427" lon="5.62331">
        <ele>1333.8</ele>
        <time>2011-06-09T07:46:48Z</time>
      </trkpt>
      <trkpt lat="44.71409" lon="5.62171">
        <ele>1333.3</ele>
        <time>2011-06-09T07:47:32Z</time>
      </trkpt>
      <trkpt lat="44.71404" lon="5.62152">
        <ele>1332.6</ele>
        <time>2011-06-09T07:49:46Z</time>
      </trkpt>
      <trkpt lat="44.71406" lon="5.62155">
        <ele>1333.3</ele>
        <time>2011-06-09T07:50:42Z</time>
      </trkpt>
      <trkpt lat="44.71391" lon="5.62062">
        <ele>1323.2</ele>
        <time>2011-06-09T07:51:07Z</time>
      </trkpt>
      <trkpt lat="44.71389" lon="5.62058">
        <ele>1322</ele>
        <time>2011-06-09T07:51:11Z</time>
      </trkpt>
      <trkpt lat="44.71368" lon="5.61978">
        <ele>1318.7</ele>
        <time>2011-06-09T07:51:22Z</time>
      </trkpt>
      <trkpt lat="44.71369" lon="5.61968">
        <ele>1317.7</ele>
        <time>2011-06-09T07:51:23Z</time>
      </trkpt>
      <trkpt lat="44.71391" lon="5.61918">
        <ele>1310.8</ele>
        <time>2011-06-09T07:51:57Z</time>
      </trkpt>
      <trkpt lat="44.71394" lon="5.61895">
        <ele>1312.5</ele>
        <time>2011-06-09T07:52:39Z</time>
      </trkpt>
      <trkpt lat="44.71407" lon="5.61873">
        <ele>1313.4</ele>
        <time>2011-06-09T07:53:41Z</time>
      </trkpt>
      <trkpt lat="44.71429" lon="5.61859">
        <ele>1313.4</ele>
        <time>2011-06-09T07:54:16Z</time>
      </trkpt>
      <trkpt lat="44.71449" lon="5.61855">
        <ele>1314.3</ele>
        <time>2011-06-09T07:54:43Z</time>
      </trkpt>
      <trkpt lat="44.71452" lon="5.61861">
        <ele>1313.6</ele>
        <time>2011-06-09T07:56:45Z</time>
      </trkpt>
      <trkpt lat="44.71451" lon="5.61869">
        <ele>1314.7</ele>
        <time>2011-06-09T07:57:35Z</time>
      </trkpt>
      <trkpt lat="44.71458" lon="5.61858">
        <ele>1313.6</ele>
        <time>2011-06-09T07:59:21Z</time>
      </trkpt>
      <trkpt lat="44.71453" lon="5.61842">
        <ele>1313.1</ele>
        <time>2011-06-09T07:59:33Z</time>
      </trkpt>
      <trkpt lat="44.71434" lon="5.61818">
        <ele>1308.6</ele>
        <time>2011-06-09T07:59:55Z</time>
      </trkpt>
      <trkpt lat="44.71422" lon="5.61785">
        <ele>1305.1</ele>
        <time>2011-06-09T08:00:03Z</time>
      </trkpt>
      <trkpt lat="44.71412" lon="5.61722">
        <ele>1300.1</ele>
        <time>2011-06-09T08:00:22Z</time>
      </trkpt>
      <trkpt lat="44.71407" lon="5.61696">
        <ele>1299.5</ele>
        <time>2011-06-09T08:01:14Z</time>
      </trkpt>
      <trkpt lat="44.71411" lon="5.61672">
        <ele>1301</ele>
        <time>2011-06-09T08:01:38Z</time>
      </trkpt>
      <trkpt lat="44.71425" lon="5.61631">
        <ele>1308.4</ele>
        <time>2011-06-09T08:02:14Z</time>
      </trkpt>
      <trkpt lat="44.71447" lon="5.61585">
        <ele>1319.9</ele>
        <time>2011-06-09T08:04:31Z</time>
      </trkpt>
      <trkpt lat="44.71433" lon="5.61614">
        <ele>1316.5</ele>
        <time>2011-06-09T08:05:14Z</time>
      </trkpt>
      <trkpt lat="44.7144" lon="5.6163">
        <ele>1317.5</ele>
        <time>2011-06-09T08:06:08Z</time>
      </trkpt>
      <trkpt lat="44.71447" lon="5.61632">
        <ele>1315.5</ele>
        <time>2011-06-09T08:06:47Z</time>
      </trkpt>
      <trkpt lat="44.71445" lon="5.61635">
        <ele>1314.6</ele>
        <time>2011-06-09T08:07:34Z</time>
      </trkpt>
      <trkpt lat="44.71459" lon="5.61642">
        <ele>1313.8</ele>
        <time>2011-06-09T08:09:20Z</time>
      </trkpt>
      <trkpt lat="44.71477" lon="5.61663">
        <ele>1303.9</ele>
        <time>2011-06-09T08:10:33Z</time>
      </trkpt>
      <trkpt lat="44.71481" lon="5.61669">
        <ele>1300.8</ele>
        <time>2011-06-09T08:10:48Z</time>
      </trkpt>
      <trkpt lat="44.71492" lon="5.61672">
        <ele>1297.8</ele>
        <time>2011-06-09T08:11:24Z</time>
      </trkpt>
      <trkpt lat="44.71497" lon="5.61676">
        <ele>1295.2</ele>
        <time>2011-06-09T08:11:49Z</time>
      </trkpt>
      <trkpt lat="44.71505" lon="5.61675">
        <ele>1290.3</ele>
        <time>2011-06-09T08:13:10Z</time>
      </trkpt>
      <trkpt lat="44.71514" lon="5.6168">
        <ele>1287</ele>
        <time>2011-06-09T08:14:24Z</time>
      </trkpt>
      <trkpt lat="44.71525" lon="5.61679">
        <ele>1283</ele>
        <time>2011-06-09T08:15:18Z</time>
      </trkpt>
      <trkpt lat="44.71542" lon="5.61696">
        <ele>1271.7</ele>
        <time>2011-06-09T08:16:20Z</time>
      </trkpt>
      <trkpt lat="44.71545" lon="5.61705">
        <ele>1268</ele>
        <time>2011-06-09T08:16:41Z</time>
      </trkpt>
      <trkpt lat="44.71545" lon="5.61712">
        <ele>1266</ele>
        <time>2011-06-09T08:16:56Z</time>
      </trkpt>
      <trkpt lat="44.71547" lon="5.6172">
        <ele>1263</ele>
        <time>2011-06-09T08:17:22Z</time>
      </trkpt>
      <trkpt lat="44.71556" lon="5.61721">
        <ele>1260.4</ele>
        <time>2011-06-09T08:18:11Z</time>
      </trkpt>
      <trkpt lat="44.7156" lon="5.61727">
        <ele>1258.4</ele>
        <time>2011-06-09T08:18:41Z</time>
      </trkpt>
      <trkpt lat="44.71559" lon="5.61727">
        <ele>1256.9</ele>
        <time>2011-06-09T08:19:02Z</time>
      </trkpt>
      <trkpt lat="44.71559" lon="5.61726">
        <ele>1254.7</ele>
        <time>2011-06-09T08:19:20Z</time>
      </trkpt>
      <trkpt lat="44.71561" lon="5.61728">
        <ele>1252.8</ele>
        <time>2011-06-09T08:19:45Z</time>
      </trkpt>
      <trkpt lat="44.71559" lon="5.61728">
        <ele>1251.4</ele>
        <time>2011-06-09T08:20:11Z</time>
      </trkpt>
      <trkpt lat="44.71562" lon="5.61727">
        <ele>1251</ele>
        <time>2011-06-09T08:20:27Z</time>
      </trkpt>
      <trkpt lat="44.71563" lon="5.61721">
        <ele>1251.4</ele>
        <time>2011-06-09T08:20:56Z</time>
      </trkpt>
      <trkpt lat="44.71561" lon="5.61723">
        <ele>1251.8</ele>
        <time>2011-06-09T08:21:40Z</time>
      </trkpt>
      <trkpt lat="44.71557" lon="5.61723">
        <ele>1249.9</ele>
        <time>2011-06-09T08:23:17Z</time>
      </trkpt>
      <trkpt lat="44.71562" lon="5.61726">
        <ele>1248.8</ele>
        <time>2011-06-09T08:24:01Z</time>
      </trkpt>
      <trkpt lat="44.71563" lon="5.61717">
        <ele>1248.1</ele>
        <time>2011-06-09T08:25:07Z</time>
      </trkpt>
      <trkpt lat="44.71566" lon="5.61713">
        <ele>1246.8</ele>
        <time>2011-06-09T08:25:28Z</time>
      </trkpt>
      <trkpt lat="44.7157" lon="5.61711">
        <ele>1245.4</ele>
        <time>2011-06-09T08:26:34Z</time>
      </trkpt>
      <trkpt lat="44.7157" lon="5.61707">
        <ele>1246.5</ele>
        <time>2011-06-09T08:27:54Z</time>
      </trkpt>
      <trkpt lat="44.7158" lon="5.61712">
        <ele>1245.5</ele>
        <time>2011-06-09T08:28:43Z</time>
      </trkpt>
      <trkpt lat="44.7159" lon="5.61709">
        <ele>1239</ele>
        <time>2011-06-09T08:29:18Z</time>
      </trkpt>
      <trkpt lat="44.71597" lon="5.61689">
        <ele>1241.9</ele>
        <time>2011-06-09T08:29:48Z</time>
      </trkpt>
      <trkpt lat="44.7159" lon="5.61687">
        <ele>1249.1</ele>
        <time>2011-06-09T08:30:56Z</time>
      </trkpt>
      <trkpt lat="44.71595" lon="5.61696">
        <ele>1249.4</ele>
        <time>2011-06-09T08:31:14Z</time>
      </trkpt>
      <trkpt lat="44.71601" lon="5.61699">
        <ele>1250.1</ele>
        <time>2011-06-09T08:31:36Z</time>
      </trkpt>
      <trkpt lat="44.71614" lon="5.617">
        <ele>1248.1</ele>
        <time>2011-06-09T08:32:19Z</time>
      </trkpt>
      <trkpt lat="44.71645" lon="5.61714">
        <ele>1242.8</ele>
        <time>2011-06-09T08:33:12Z</time>
      </trkpt>
      <trkpt lat="44.71647" lon="5.61716">
        <ele>1241.3</ele>
        <time>2011-06-09T08:33:57Z</time>
      </trkpt>
      <trkpt lat="44.71657" lon="5.61715">
        <ele>1240.1</ele>
        <time>2011-06-09T08:34:39Z</time>
      </trkpt>
      <trkpt lat="44.7166" lon="5.61708">
        <ele>1238.4</ele>
        <time>2011-06-09T08:34:59Z</time>
      </trkpt>
      <trkpt lat="44.71671" lon="5.617">
        <ele>1238.1</ele>
        <time>2011-06-09T08:35:55Z</time>
      </trkpt>
      <trkpt lat="44.71678" lon="5.617">
        <ele>1237.2</ele>
        <time>2011-06-09T08:36:12Z</time>
      </trkpt>
      <trkpt lat="44.71684" lon="5.61704">
        <ele>1237.4</ele>
        <time>2011-06-09T08:37:17Z</time>
      </trkpt>
      <trkpt lat="44.71684" lon="5.61701">
        <ele>1236.6</ele>
        <time>2011-06-09T08:37:41Z</time>
      </trkpt>
      <trkpt lat="44.71688" lon="5.61711">
        <ele>1237.9</ele>
        <time>2011-06-09T08:38:47Z</time>
      </trkpt>
      <trkpt lat="44.71687" lon="5.61707">
        <ele>1237.9</ele>
        <time>2011-06-09T08:39:35Z</time>
      </trkpt>
      <trkpt lat="44.71683" lon="5.61707">
        <ele>1237.7</ele>
        <time>2011-06-09T08:39:48Z</time>
      </trkpt>
      <trkpt lat="44.71678" lon="5.6171">
        <ele>1241.2</ele>
        <time>2011-06-09T08:40:14Z</time>
      </trkpt>
      <trkpt lat="44.71675" lon="5.61716">
        <ele>1244</ele>
        <time>2011-06-09T08:40:29Z</time>
      </trkpt>
      <trkpt lat="44.7168" lon="5.61733">
        <ele>1250.4</ele>
        <time>2011-06-09T08:41:18Z</time>
      </trkpt>
      <trkpt lat="44.71681" lon="5.61752">
        <ele>1258.2</ele>
        <time>2011-06-09T08:42:14Z</time>
      </trkpt>
      <trkpt lat="44.71684" lon="5.61748">
        <ele>1258.7</ele>
        <time>2011-06-09T08:42:49Z</time>
      </trkpt>
      <trkpt lat="44.71703" lon="5.61755">
        <ele>1258.6</ele>
        <time>2011-06-09T08:45:17Z</time>
      </trkpt>
      <trkpt lat="44.71699" lon="5.61758">
        <ele>1258.2</ele>
        <time>2011-06-09T08:45:40Z</time>
      </trkpt>
      <trkpt lat="44.71708" lon="5.61758">
        <ele>1258.2</ele>
        <time>2011-06-09T08:46:52Z</time>
      </trkpt>
      <trkpt lat="44.71709" lon="5.61754">
        <ele>1258.4</ele>
        <time>2011-06-09T08:48:34Z</time>
      </trkpt>
      <trkpt lat="44.71711" lon="5.61757">
        <ele>1257.8</ele>
        <time>2011-06-09T08:48:42Z</time>
      </trkpt>
      <trkpt lat="44.71726" lon="5.61756">
        <ele>1256.1</ele>
        <time>2011-06-09T08:50:14Z</time>
      </trkpt>
      <trkpt lat="44.71739" lon="5.61766">
        <ele>1251.4</ele>
        <time>2011-06-09T08:50:26Z</time>
      </trkpt>
      <trkpt lat="44.71774" lon="5.6182">
        <ele>1244.9</ele>
        <time>2011-06-09T08:50:42Z</time>
      </trkpt>
      <trkpt lat="44.71799" lon="5.61843">
        <ele>1244.3</ele>
        <time>2011-06-09T08:51:02Z</time>
      </trkpt>
      <trkpt lat="44.71853" lon="5.61931">
        <ele>1235.1</ele>
        <time>2011-06-09T08:51:44Z</time>
      </trkpt>
      <trkpt lat="44.71868" lon="5.61944">
        <ele>1235.4</ele>
        <time>2011-06-09T08:51:59Z</time>
      </trkpt>
      <trkpt lat="44.71922" lon="5.6196">
        <ele>1238</ele>
        <time>2011-06-09T08:52:25Z</time>
      </trkpt>
      <trkpt lat="44.71936" lon="5.61982">
        <ele>1238.5</ele>
        <time>2011-06-09T08:52:43Z</time>
      </trkpt>
      <trkpt lat="44.71926" lon="5.62017">
        <ele>1229.8</ele>
        <time>2011-06-09T08:52:56Z</time>
      </trkpt>
      <trkpt lat="44.71933" lon="5.62066">
        <ele>1219.6</ele>
        <time>2011-06-09T08:53:07Z</time>
      </trkpt>
      <trkpt lat="44.71936" lon="5.62073">
        <ele>1217.4</ele>
        <time>2011-06-09T08:53:09Z</time>
      </trkpt>
      <trkpt lat="44.71961" lon="5.62097">
        <ele>1212.6</ele>
        <time>2011-06-09T08:53:21Z</time>
      </trkpt>
      <trkpt lat="44.7215" lon="5.62099">
        <ele>1208.7</ele>
        <time>2011-06-09T08:55:55Z</time>
      </trkpt>
      <trkpt lat="44.72174" lon="5.62113">
        <ele>1204.1</ele>
        <time>2011-06-09T08:56:01Z</time>
      </trkpt>
      <trkpt lat="44.72219" lon="5.62173">
        <ele>1191.7</ele>
        <time>2011-06-09T08:56:14Z</time>
      </trkpt>
      <trkpt lat="44.72228" lon="5.62174">
        <ele>1189.3</ele>
        <time>2011-06-09T08:56:17Z</time>
      </trkpt>
      <trkpt lat="44.72245" lon="5.62155">
        <ele>1183</ele>
        <time>2011-06-09T08:56:57Z</time>
      </trkpt>
      <trkpt lat="44.72244" lon="5.62127">
        <ele>1181.3</ele>
        <time>2011-06-09T08:57:07Z</time>
      </trkpt>
      <trkpt lat="44.72238" lon="5.62109">
        <ele>1180.7</ele>
        <time>2011-06-09T08:57:10Z</time>
      </trkpt>
      <trkpt lat="44.7224" lon="5.6208">
        <ele>1177.5</ele>
        <time>2011-06-09T08:57:14Z</time>
      </trkpt>
      <trkpt lat="44.72248" lon="5.62063">
        <ele>1175.5</ele>
        <time>2011-06-09T08:57:17Z</time>
      </trkpt>
      <trkpt lat="44.72235" lon="5.62029">
        <ele>1168.2</ele>
        <time>2011-06-09T08:58:18Z</time>
      </trkpt>
      <trkpt lat="44.72263" lon="5.62029">
        <ele>1170.1</ele>
        <time>2011-06-09T08:58:37Z</time>
      </trkpt>
      <trkpt lat="44.72265" lon="5.6203">
        <ele>1169.3</ele>
        <time>2011-06-09T08:58:48Z</time>
      </trkpt>
      <trkpt lat="44.72247" lon="5.62029">
        <ele>1169</ele>
        <time>2011-06-09T08:59:08Z</time>
      </trkpt>
      <trkpt lat="44.72241" lon="5.62034">
        <ele>1169.1</ele>
        <time>2011-06-09T09:00:09Z</time>
      </trkpt>
      <trkpt lat="44.72216" lon="5.62033">
        <ele>1169.2</ele>
        <time>2011-06-09T09:00:21Z</time>
      </trkpt>
      <trkpt lat="44.72151" lon="5.61993">
        <ele>1161</ele>
        <time>2011-06-09T09:00:36Z</time>
      </trkpt>
      <trkpt lat="44.72141" lon="5.61973">
        <ele>1157.8</ele>
        <time>2011-06-09T09:00:40Z</time>
      </trkpt>
      <trkpt lat="44.72143" lon="5.6194">
        <ele>1151.8</ele>
        <time>2011-06-09T09:00:56Z</time>
      </trkpt>
      <trkpt lat="44.72131" lon="5.6194">
        <ele>1152.8</ele>
        <time>2011-06-09T09:01:06Z</time>
      </trkpt>
      <trkpt lat="44.72116" lon="5.61932">
        <ele>1149.1</ele>
        <time>2011-06-09T09:01:40Z</time>
      </trkpt>
      <trkpt lat="44.72111" lon="5.61936">
        <ele>1149.5</ele>
        <time>2011-06-09T09:03:01Z</time>
      </trkpt>
      <trkpt lat="44.72071" lon="5.61883">
        <ele>1141.6</ele>
        <time>2011-06-09T09:03:38Z</time>
      </trkpt>
      <trkpt lat="44.72071" lon="5.61876">
        <ele>1138.9</ele>
        <time>2011-06-09T09:04:22Z</time>
      </trkpt>
      <trkpt lat="44.71997" lon="5.61698">
        <ele>1125</ele>
        <time>2011-06-09T09:04:49Z</time>
      </trkpt>
      <trkpt lat="44.71991" lon="5.61663">
        <ele>1119.8</ele>
        <time>2011-06-09T09:05:42Z</time>
      </trkpt>
      <trkpt lat="44.71991" lon="5.61669">
        <ele>1117.8</ele>
        <time>2011-06-09T09:06:34Z</time>
      </trkpt>
      <trkpt lat="44.7199" lon="5.61666">
        <ele>1119.3</ele>
        <time>2011-06-09T09:07:09Z</time>
      </trkpt>
      <trkpt lat="44.71991" lon="5.61659">
        <ele>1118.5</ele>
        <time>2011-06-09T09:07:56Z</time>
      </trkpt>
      <trkpt lat="44.71994" lon="5.61686">
        <ele>1120.2</ele>
        <time>2011-06-09T09:09:15Z</time>
      </trkpt>
      <trkpt lat="44.71994" lon="5.61687">
        <ele>1120.4</ele>
        <time>2011-06-09T09:10:56Z</time>
      </trkpt>
      <trkpt lat="44.71989" lon="5.61681">
        <ele>1120.7</ele>
        <time>2011-06-09T09:11:36Z</time>
      </trkpt>
      <trkpt lat="44.71994" lon="5.61655">
        <ele>1117.9</ele>
        <time>2011-06-09T09:11:44Z</time>
      </trkpt>
      <trkpt lat="44.71978" lon="5.61644">
        <ele>1114.8</ele>
        <time>2011-06-09T09:11:54Z</time>
      </trkpt>
      <trkpt lat="44.71979" lon="5.61626">
        <ele>1112.2</ele>
        <time>2011-06-09T09:12:20Z</time>
      </trkpt>
      <trkpt lat="44.71992" lon="5.61594">
        <ele>1109.3</ele>
        <time>2011-06-09T09:12:27Z</time>
      </trkpt>
      <trkpt lat="44.7199" lon="5.61601">
        <ele>1108.4</ele>
        <time>2011-06-09T09:12:56Z</time>
      </trkpt>
      <trkpt lat="44.71991" lon="5.61567">
        <ele>1107</ele>
        <time>2011-06-09T09:14:00Z</time>
      </trkpt>
      <trkpt lat="44.7198" lon="5.61537">
        <ele>1108.9</ele>
        <time>2011-06-09T09:14:12Z</time>
      </trkpt>
      <trkpt lat="44.71963" lon="5.61525">
        <ele>1112.7</ele>
        <time>2011-06-09T09:14:25Z</time>
      </trkpt>
      <trkpt lat="44.71938" lon="5.61521">
        <ele>1118.3</ele>
        <time>2011-06-09T09:14:46Z</time>
      </trkpt>
      <trkpt lat="44.71909" lon="5.61522">
        <ele>1126.1</ele>
        <time>2011-06-09T09:15:39Z</time>
      </trkpt>
      <trkpt lat="44.71888" lon="5.61529">
        <ele>1131.2</ele>
        <time>2011-06-09T09:16:10Z</time>
      </trkpt>
      <trkpt lat="44.71874" lon="5.61528">
        <ele>1132.5</ele>
        <time>2011-06-09T09:16:21Z</time>
      </trkpt>
      <trkpt lat="44.71868" lon="5.61522">
        <ele>1132.8</ele>
        <time>2011-06-09T09:16:27Z</time>
      </trkpt>
      <trkpt lat="44.71869" lon="5.6151">
        <ele>1132.1</ele>
        <time>2011-06-09T09:16:34Z</time>
      </trkpt>
      <trkpt lat="44.71885" lon="5.61477">
        <ele>1136.2</ele>
        <time>2011-06-09T09:16:55Z</time>
      </trkpt>
      <trkpt lat="44.71937" lon="5.6142">
        <ele>1142.2</ele>
        <time>2011-06-09T09:17:42Z</time>
      </trkpt>
      <trkpt lat="44.71944" lon="5.61408">
        <ele>1145.1</ele>
        <time>2011-06-09T09:17:50Z</time>
      </trkpt>
      <trkpt lat="44.71949" lon="5.61356">
        <ele>1152.5</ele>
        <time>2011-06-09T09:18:19Z</time>
      </trkpt>
      <trkpt lat="44.71941" lon="5.61274">
        <ele>1154.8</ele>
        <time>2011-06-09T09:19:00Z</time>
      </trkpt>
      <trkpt lat="44.71937" lon="5.61267">
        <ele>1155.7</ele>
        <time>2011-06-09T09:19:04Z</time>
      </trkpt>
      <trkpt lat="44.71904" lon="5.61245">
        <ele>1159.3</ele>
        <time>2011-06-09T09:19:27Z</time>
      </trkpt>
      <trkpt lat="44.71894" lon="5.61222">
        <ele>1160.6</ele>
        <time>2011-06-09T09:19:39Z</time>
      </trkpt>
      <trkpt lat="44.71891" lon="5.61171">
        <ele>1161.3</ele>
        <time>2011-06-09T09:19:57Z</time>
      </trkpt>
      <trkpt lat="44.71902" lon="5.61121">
        <ele>1164.5</ele>
        <time>2011-06-09T09:20:16Z</time>
      </trkpt>
      <trkpt lat="44.71899" lon="5.61103">
        <ele>1165.2</ele>
        <time>2011-06-09T09:20:23Z</time>
      </trkpt>
      <trkpt lat="44.71771" lon="5.6102">
        <ele>1168.3</ele>
        <time>2011-06-09T09:21:23Z</time>
      </trkpt>
      <trkpt lat="44.71724" lon="5.60972">
        <ele>1173</ele>
        <time>2011-06-09T09:21:56Z</time>
      </trkpt>
      <trkpt lat="44.71706" lon="5.60971">
        <ele>1176.5</ele>
        <time>2011-06-09T09:22:07Z</time>
      </trkpt>
      <trkpt lat="44.71688" lon="5.60979">
        <ele>1176.2</ele>
        <time>2011-06-09T09:22:20Z</time>
      </trkpt>
      <trkpt lat="44.71671" lon="5.60972">
        <ele>1180.1</ele>
        <time>2011-06-09T09:22:35Z</time>
      </trkpt>
      <trkpt lat="44.71659" lon="5.6096">
        <ele>1182.4</ele>
        <time>2011-06-09T09:22:47Z</time>
      </trkpt>
      <trkpt lat="44.71604" lon="5.60938">
        <ele>1186.6</ele>
        <time>2011-06-09T09:23:26Z</time>
      </trkpt>
      <trkpt lat="44.71566" lon="5.6082">
        <ele>1192.1</ele>
        <time>2011-06-09T09:24:21Z</time>
      </trkpt>
      <trkpt lat="44.71567" lon="5.60803">
        <ele>1193.6</ele>
        <time>2011-06-09T09:24:29Z</time>
      </trkpt>
      <trkpt lat="44.71559" lon="5.60785">
        <ele>1195.3</ele>
        <time>2011-06-09T09:24:39Z</time>
      </trkpt>
      <trkpt lat="44.71541" lon="5.60765">
        <ele>1199.1</ele>
        <time>2011-06-09T09:24:59Z</time>
      </trkpt>
      <trkpt lat="44.71516" lon="5.60695">
        <ele>1203.8</ele>
        <time>2011-06-09T09:25:36Z</time>
      </trkpt>
      <trkpt lat="44.71518" lon="5.60616">
        <ele>1208.6</ele>
        <time>2011-06-09T09:26:15Z</time>
      </trkpt>
      <trkpt lat="44.71521" lon="5.60599">
        <ele>1211.1</ele>
        <time>2011-06-09T09:26:25Z</time>
      </trkpt>
      <trkpt lat="44.71524" lon="5.60546">
        <ele>1214.2</ele>
        <time>2011-06-09T09:26:49Z</time>
      </trkpt>
      <trkpt lat="44.71518" lon="5.60526">
        <ele>1213.8</ele>
        <time>2011-06-09T09:26:59Z</time>
      </trkpt>
      <trkpt lat="44.71488" lon="5.60387">
        <ele>1223.4</ele>
        <time>2011-06-09T09:28:01Z</time>
      </trkpt>
      <trkpt lat="44.71484" lon="5.60336">
        <ele>1226.3</ele>
        <time>2011-06-09T09:28:24Z</time>
      </trkpt>
      <trkpt lat="44.7148" lon="5.60326">
        <ele>1228.6</ele>
        <time>2011-06-09T09:28:29Z</time>
      </trkpt>
      <trkpt lat="44.71432" lon="5.60264">
        <ele>1235.3</ele>
        <time>2011-06-09T09:31:26Z</time>
      </trkpt>
      <trkpt lat="44.71428" lon="5.60251">
        <ele>1235.7</ele>
        <time>2011-06-09T09:31:34Z</time>
      </trkpt>
      <trkpt lat="44.71379" lon="5.60164">
        <ele>1244.1</ele>
        <time>2011-06-09T09:32:49Z</time>
      </trkpt>
      <trkpt lat="44.71351" lon="5.60112">
        <ele>1248</ele>
        <time>2011-06-09T09:33:25Z</time>
      </trkpt>
      <trkpt lat="44.71291" lon="5.60103">
        <ele>1252.9</ele>
        <time>2011-06-09T09:34:10Z</time>
      </trkpt>
      <trkpt lat="44.71285" lon="5.60089">
        <ele>1254.7</ele>
        <time>2011-06-09T09:34:17Z</time>
      </trkpt>
      <trkpt lat="44.71289" lon="5.59974">
        <ele>1268.6</ele>
        <time>2011-06-09T09:35:26Z</time>
      </trkpt>
      <trkpt lat="44.7128" lon="5.59915">
        <ele>1276.3</ele>
        <time>2011-06-09T09:36:05Z</time>
      </trkpt>
      <trkpt lat="44.71271" lon="5.59895">
        <ele>1279.5</ele>
        <time>2011-06-09T09:36:19Z</time>
      </trkpt>
      <trkpt lat="44.71251" lon="5.59882">
        <ele>1283.2</ele>
        <time>2011-06-09T09:36:39Z</time>
      </trkpt>
      <trkpt lat="44.7124" lon="5.59874">
        <ele>1284.5</ele>
        <time>2011-06-09T09:38:00Z</time>
      </trkpt>
      <trkpt lat="44.71226" lon="5.59868">
        <ele>1283.5</ele>
        <time>2011-06-09T09:38:26Z</time>
      </trkpt>
      <trkpt lat="44.7121" lon="5.59845">
        <ele>1282.4</ele>
        <time>2011-06-09T09:38:35Z</time>
      </trkpt>
      <trkpt lat="44.7117" lon="5.59775">
        <ele>1279.1</ele>
        <time>2011-06-09T09:39:23Z</time>
      </trkpt>
      <trkpt lat="44.71149" lon="5.5976">
        <ele>1278.1</ele>
        <time>2011-06-09T09:39:31Z</time>
      </trkpt>
      <trkpt lat="44.7113" lon="5.59763">
        <ele>1276.8</ele>
        <time>2011-06-09T09:39:39Z</time>
      </trkpt>
      <trkpt lat="44.71099" lon="5.59749">
        <ele>1274.7</ele>
        <time>2011-06-09T09:39:53Z</time>
      </trkpt>
      <trkpt lat="44.71016" lon="5.59746">
        <ele>1274.5</ele>
        <time>2011-06-09T09:40:53Z</time>
      </trkpt>
      <trkpt lat="44.70982" lon="5.59727">
        <ele>1274.7</ele>
        <time>2011-06-09T09:41:08Z</time>
      </trkpt>
      <trkpt lat="44.70919" lon="5.59725">
        <ele>1273.8</ele>
        <time>2011-06-09T09:41:31Z</time>
      </trkpt>
      <trkpt lat="44.7088" lon="5.59746">
        <ele>1275.2</ele>
        <time>2011-06-09T09:42:00Z</time>
      </trkpt>
      <trkpt lat="44.70872" lon="5.59747">
        <ele>1276.6</ele>
        <time>2011-06-09T09:42:18Z</time>
      </trkpt>
      <trkpt lat="44.70863" lon="5.59737">
        <ele>1275.5</ele>
        <time>2011-06-09T09:43:17Z</time>
      </trkpt>
      <trkpt lat="44.70835" lon="5.59741">
        <ele>1284.8</ele>
        <time>2011-06-09T09:44:21Z</time>
      </trkpt>
      <trkpt lat="44.70814" lon="5.59738">
        <ele>1287.8</ele>
        <time>2011-06-09T09:45:19Z</time>
      </trkpt>
      <trkpt lat="44.70776" lon="5.59743">
        <ele>1300.6</ele>
        <time>2011-06-09T09:47:23Z</time>
      </trkpt>
      <trkpt lat="44.70742" lon="5.59729">
        <ele>1307.6</ele>
        <time>2011-06-09T09:48:11Z</time>
      </trkpt>
      <trkpt lat="44.70726" lon="5.59715">
        <ele>1307.5</ele>
        <time>2011-06-09T09:51:05Z</time>
      </trkpt>
      <trkpt lat="44.70689" lon="5.59724">
        <ele>1305.1</ele>
        <time>2011-06-09T09:51:47Z</time>
      </trkpt>
      <trkpt lat="44.70676" lon="5.59725">
        <ele>1304.2</ele>
        <time>2011-06-09T09:51:59Z</time>
      </trkpt>
      <trkpt lat="44.70641" lon="5.59701">
        <ele>1307.2</ele>
        <time>2011-06-09T09:52:30Z</time>
      </trkpt>
      <trkpt lat="44.70633" lon="5.59707">
        <ele>1306.8</ele>
        <time>2011-06-09T09:53:04Z</time>
      </trkpt>
      <trkpt lat="44.70617" lon="5.59706">
        <ele>1307.2</ele>
        <time>2011-06-09T09:53:23Z</time>
      </trkpt>
      <trkpt lat="44.70604" lon="5.5971">
        <ele>1306.9</ele>
        <time>2011-06-09T09:53:33Z</time>
      </trkpt>
      <trkpt lat="44.70565" lon="5.59735">
        <ele>1307</ele>
        <time>2011-06-09T09:54:07Z</time>
      </trkpt>
      <trkpt lat="44.7055" lon="5.59747">
        <ele>1307.3</ele>
        <time>2011-06-09T09:54:25Z</time>
      </trkpt>
      <trkpt lat="44.70506" lon="5.59766">
        <ele>1305.9</ele>
        <time>2011-06-09T09:55:06Z</time>
      </trkpt>
      <trkpt lat="44.70475" lon="5.5977">
        <ele>1302.7</ele>
        <time>2011-06-09T09:55:24Z</time>
      </trkpt>
      <trkpt lat="44.70464" lon="5.59766">
        <ele>1302.2</ele>
        <time>2011-06-09T09:55:29Z</time>
      </trkpt>
      <trkpt lat="44.70429" lon="5.59786">
        <ele>1295.2</ele>
        <time>2011-06-09T09:56:27Z</time>
      </trkpt>
      <trkpt lat="44.70417" lon="5.59783">
        <ele>1291.3</ele>
        <time>2011-06-09T09:56:35Z</time>
      </trkpt>
      <trkpt lat="44.70405" lon="5.59765">
        <ele>1285.7</ele>
        <time>2011-06-09T09:56:52Z</time>
      </trkpt>
      <trkpt lat="44.70393" lon="5.59736">
        <ele>1282.8</ele>
        <time>2011-06-09T09:57:27Z</time>
      </trkpt>
      <trkpt lat="44.70381" lon="5.59727">
        <ele>1286</ele>
        <time>2011-06-09T09:57:58Z</time>
      </trkpt>
      <trkpt lat="44.70374" lon="5.59718">
        <ele>1284</ele>
        <time>2011-06-09T09:59:30Z</time>
      </trkpt>
      <trkpt lat="44.70368" lon="5.59681">
        <ele>1279</ele>
        <time>2011-06-09T10:00:36Z</time>
      </trkpt>
      <trkpt lat="44.70368" lon="5.59662">
        <ele>1275.8</ele>
        <time>2011-06-09T10:01:01Z</time>
      </trkpt>
      <trkpt lat="44.70356" lon="5.59639">
        <ele>1272</ele>
        <time>2011-06-09T10:01:46Z</time>
      </trkpt>
      <trkpt lat="44.70351" lon="5.59637">
        <ele>1272.5</ele>
        <time>2011-06-09T10:02:06Z</time>
      </trkpt>
      <trkpt lat="44.70344" lon="5.59626">
        <ele>1267.6</ele>
        <time>2011-06-09T10:02:29Z</time>
      </trkpt>
      <trkpt lat="44.70342" lon="5.5961">
        <ele>1261.4</ele>
        <time>2011-06-09T10:03:15Z</time>
      </trkpt>
      <trkpt lat="44.70349" lon="5.59591">
        <ele>1252.6</ele>
        <time>2011-06-09T10:04:18Z</time>
      </trkpt>
      <trkpt lat="44.70348" lon="5.59586">
        <ele>1250.5</ele>
        <time>2011-06-09T10:04:47Z</time>
      </trkpt>
      <trkpt lat="44.70279" lon="5.59571">
        <ele>1251</ele>
        <time>2011-06-09T10:05:25Z</time>
      </trkpt>
      <trkpt lat="44.70257" lon="5.59572">
        <ele>1250.4</ele>
        <time>2011-06-09T10:05:33Z</time>
      </trkpt>
      <trkpt lat="44.70223" lon="5.59593">
        <ele>1249.4</ele>
        <time>2011-06-09T10:05:47Z</time>
      </trkpt>
      <trkpt lat="44.70191" lon="5.596">
        <ele>1247.9</ele>
        <time>2011-06-09T10:06:04Z</time>
      </trkpt>
      <trkpt lat="44.70126" lon="5.59597">
        <ele>1247</ele>
        <time>2011-06-09T10:06:28Z</time>
      </trkpt>
      <trkpt lat="44.70098" lon="5.59587">
        <ele>1245.4</ele>
        <time>2011-06-09T10:06:38Z</time>
      </trkpt>
      <trkpt lat="44.70084" lon="5.59589">
        <ele>1243</ele>
        <time>2011-06-09T10:07:04Z</time>
      </trkpt>
      <trkpt lat="44.69924" lon="5.59518">
        <ele>1220.9</ele>
        <time>2011-06-09T10:07:39Z</time>
      </trkpt>
      <trkpt lat="44.69765" lon="5.59556">
        <ele>1193.9</ele>
        <time>2011-06-09T10:08:16Z</time>
      </trkpt>
      <trkpt lat="44.69693" lon="5.59624">
        <ele>1180.2</ele>
        <time>2011-06-09T10:08:35Z</time>
      </trkpt>
      <trkpt lat="44.69673" lon="5.59624">
        <ele>1175.3</ele>
        <time>2011-06-09T10:08:41Z</time>
      </trkpt>
      <trkpt lat="44.69638" lon="5.596">
        <ele>1168.1</ele>
        <time>2011-06-09T10:08:48Z</time>
      </trkpt>
      <trkpt lat="44.69621" lon="5.59604">
        <ele>1163.5</ele>
        <time>2011-06-09T10:09:08Z</time>
      </trkpt>
      <trkpt lat="44.69615" lon="5.59614">
        <ele>1162.7</ele>
        <time>2011-06-09T10:09:33Z</time>
      </trkpt>
      <trkpt lat="44.69612" lon="5.59615">
        <ele>1163.8</ele>
        <time>2011-06-09T10:09:57Z</time>
      </trkpt>
      <trkpt lat="44.69622" lon="5.59647">
        <ele>1160.6</ele>
        <time>2011-06-09T10:10:05Z</time>
      </trkpt>
      <trkpt lat="44.69624" lon="5.59741">
        <ele>1147.2</ele>
        <time>2011-06-09T10:10:23Z</time>
      </trkpt>
      <trkpt lat="44.69616" lon="5.59723">
        <ele>1141.9</ele>
        <time>2011-06-09T10:10:33Z</time>
      </trkpt>
      <trkpt lat="44.69602" lon="5.59723">
        <ele>1136.2</ele>
        <time>2011-06-09T10:10:44Z</time>
      </trkpt>
      <trkpt lat="44.69599" lon="5.59757">
        <ele>1131</ele>
        <time>2011-06-09T10:10:55Z</time>
      </trkpt>
      <trkpt lat="44.69589" lon="5.59752">
        <ele>1125.3</ele>
        <time>2011-06-09T10:11:12Z</time>
      </trkpt>
      <trkpt lat="44.69581" lon="5.59742">
        <ele>1123.3</ele>
        <time>2011-06-09T10:11:19Z</time>
      </trkpt>
      <trkpt lat="44.69566" lon="5.5974">
        <ele>1121.9</ele>
        <time>2011-06-09T10:11:24Z</time>
      </trkpt>
      <trkpt lat="44.69548" lon="5.59728">
        <ele>1119.7</ele>
        <time>2011-06-09T10:11:28Z</time>
      </trkpt>
      <trkpt lat="44.69455" lon="5.59711">
        <ele>1105.4</ele>
        <time>2011-06-09T10:11:44Z</time>
      </trkpt>
      <trkpt lat="44.69461" lon="5.59726">
        <ele>1100.5</ele>
        <time>2011-06-09T10:11:54Z</time>
      </trkpt>
      <trkpt lat="44.69502" lon="5.59761">
        <ele>1087.9</ele>
        <time>2011-06-09T10:12:09Z</time>
      </trkpt>
      <trkpt lat="44.69517" lon="5.59785">
        <ele>1084.3</ele>
        <time>2011-06-09T10:12:16Z</time>
      </trkpt>
      <trkpt lat="44.69519" lon="5.5984">
        <ele>1075.2</ele>
        <time>2011-06-09T10:12:31Z</time>
      </trkpt>
      <trkpt lat="44.69525" lon="5.59854">
        <ele>1072.6</ele>
        <time>2011-06-09T10:12:36Z</time>
      </trkpt>
      <trkpt lat="44.69519" lon="5.59882">
        <ele>1070.8</ele>
        <time>2011-06-09T10:12:48Z</time>
      </trkpt>
      <trkpt lat="44.69524" lon="5.59902">
        <ele>1066.7</ele>
        <time>2011-06-09T10:14:22Z</time>
      </trkpt>
      <trkpt lat="44.69526" lon="5.59924">
        <ele>1065.8</ele>
        <time>2011-06-09T10:14:29Z</time>
      </trkpt>
      <trkpt lat="44.69531" lon="5.59934">
        <ele>1064.7</ele>
        <time>2011-06-09T10:14:32Z</time>
      </trkpt>
      <trkpt lat="44.69532" lon="5.59982">
        <ele>1059.6</ele>
        <time>2011-06-09T10:14:41Z</time>
      </trkpt>
      <trkpt lat="44.69539" lon="5.60048">
        <ele>1049</ele>
        <time>2011-06-09T10:15:03Z</time>
      </trkpt>
      <trkpt lat="44.69524" lon="5.60025">
        <ele>1045.8</ele>
        <time>2011-06-09T10:15:16Z</time>
      </trkpt>
      <trkpt lat="44.6952" lon="5.60013">
        <ele>1042.2</ele>
        <time>2011-06-09T10:15:21Z</time>
      </trkpt>
      <trkpt lat="44.69512" lon="5.60006">
        <ele>1040.8</ele>
        <time>2011-06-09T10:15:24Z</time>
      </trkpt>
      <trkpt lat="44.69497" lon="5.59974">
        <ele>1036.7</ele>
        <time>2011-06-09T10:15:32Z</time>
      </trkpt>
      <trkpt lat="44.69489" lon="5.59965">
        <ele>1036.2</ele>
        <time>2011-06-09T10:15:35Z</time>
      </trkpt>
      <trkpt lat="44.69478" lon="5.59938">
        <ele>1031.5</ele>
        <time>2011-06-09T10:15:40Z</time>
      </trkpt>
      <trkpt lat="44.6947" lon="5.59929">
        <ele>1028.4</ele>
        <time>2011-06-09T10:15:44Z</time>
      </trkpt>
      <trkpt lat="44.69471" lon="5.59942">
        <ele>1023.6</ele>
        <time>2011-06-09T10:15:51Z</time>
      </trkpt>
      <trkpt lat="44.69469" lon="5.59959">
        <ele>1021.9</ele>
        <time>2011-06-09T10:15:55Z</time>
      </trkpt>
      <trkpt lat="44.69478" lon="5.60013">
        <ele>1014.7</ele>
        <time>2011-06-09T10:16:09Z</time>
      </trkpt>
      <trkpt lat="44.69477" lon="5.60016">
        <ele>1013.6</ele>
        <time>2011-06-09T10:16:11Z</time>
      </trkpt>
      <trkpt lat="44.69434" lon="5.5996">
        <ele>1003.1</ele>
        <time>2011-06-09T10:16:31Z</time>
      </trkpt>
      <trkpt lat="44.69425" lon="5.59956">
        <ele>999.4</ele>
        <time>2011-06-09T10:16:36Z</time>
      </trkpt>
      <trkpt lat="44.69433" lon="5.5998">
        <ele>996.6</ele>
        <time>2011-06-09T10:16:43Z</time>
      </trkpt>
      <trkpt lat="44.69433" lon="5.60007">
        <ele>991.3</ele>
        <time>2011-06-09T10:16:52Z</time>
      </trkpt>
      <trkpt lat="44.69425" lon="5.59992">
        <ele>989.6</ele>
        <time>2011-06-09T10:16:57Z</time>
      </trkpt>
      <trkpt lat="44.69411" lon="5.59981">
        <ele>983.1</ele>
        <time>2011-06-09T10:17:07Z</time>
      </trkpt>
      <trkpt lat="44.69415" lon="5.60019">
        <ele>978</ele>
        <time>2011-06-09T10:17:15Z</time>
      </trkpt>
      <trkpt lat="44.69411" lon="5.60025">
        <ele>975.4</ele>
        <time>2011-06-09T10:17:25Z</time>
      </trkpt>
      <trkpt lat="44.69403" lon="5.60011">
        <ele>974.8</ele>
        <time>2011-06-09T10:17:30Z</time>
      </trkpt>
      <trkpt lat="44.69397" lon="5.59991">
        <ele>970.2</ele>
        <time>2011-06-09T10:17:35Z</time>
      </trkpt>
      <trkpt lat="44.69386" lon="5.59985">
        <ele>968.3</ele>
        <time>2011-06-09T10:18:00Z</time>
      </trkpt>
      <trkpt lat="44.69369" lon="5.59995">
        <ele>962.9</ele>
        <time>2011-06-09T10:20:17Z</time>
      </trkpt>
      <trkpt lat="44.69367" lon="5.6001">
        <ele>958.4</ele>
        <time>2011-06-09T10:20:23Z</time>
      </trkpt>
      <trkpt lat="44.69337" lon="5.6004">
        <ele>941.3</ele>
        <time>2011-06-09T10:20:45Z</time>
      </trkpt>
      <trkpt lat="44.69322" lon="5.60031">
        <ele>934</ele>
        <time>2011-06-09T10:20:52Z</time>
      </trkpt>
      <trkpt lat="44.69305" lon="5.60034">
        <ele>928.1</ele>
        <time>2011-06-09T10:20:59Z</time>
      </trkpt>
      <trkpt lat="44.69298" lon="5.60028">
        <ele>923.4</ele>
        <time>2011-06-09T10:21:25Z</time>
      </trkpt>
      <trkpt lat="44.69299" lon="5.60008">
        <ele>924.1</ele>
        <time>2011-06-09T10:22:33Z</time>
      </trkpt>
      <trkpt lat="44.69286" lon="5.60018">
        <ele>924.1</ele>
        <time>2011-06-09T10:22:57Z</time>
      </trkpt>
      <trkpt lat="44.69289" lon="5.60019">
        <ele>925</ele>
        <time>2011-06-09T10:23:22Z</time>
      </trkpt>
      <trkpt lat="44.69293" lon="5.60011">
        <ele>924.6</ele>
        <time>2011-06-09T10:24:21Z</time>
      </trkpt>
      <trkpt lat="44.69293" lon="5.6001">
        <ele>924.8</ele>
        <time>2011-06-09T10:25:30Z</time>
      </trkpt>
      <trkpt lat="44.69296" lon="5.60011">
        <ele>924.8</ele>
        <time>2011-06-09T10:26:05Z</time>
      </trkpt>
      <trkpt lat="44.69292" lon="5.60012">
        <ele>924.2</ele>
        <time>2011-06-09T10:27:21Z</time>
      </trkpt>
      <trkpt lat="44.69289" lon="5.60017">
        <ele>924.9</ele>
        <time>2011-06-09T10:28:18Z</time>
      </trkpt>
      <trkpt lat="44.69294" lon="5.60016">
        <ele>925</ele>
        <time>2011-06-09T10:28:35Z</time>
      </trkpt>
      <trkpt lat="44.69295" lon="5.60014">
        <ele>923.9</ele>
        <time>2011-06-09T10:29:27Z</time>
      </trkpt>
      <trkpt lat="44.69293" lon="5.60016">
        <ele>923</ele>
        <time>2011-06-09T10:30:01Z</time>
      </trkpt>
      <trkpt lat="44.69293" lon="5.60015">
        <ele>924</ele>
        <time>2011-06-09T10:30:54Z</time>
      </trkpt>
      <trkpt lat="44.69293" lon="5.60011">
        <ele>922.5</ele>
        <time>2011-06-09T10:31:21Z</time>
      </trkpt>
      <trkpt lat="44.69296" lon="5.60007">
        <ele>924.3</ele>
        <time>2011-06-09T10:32:04Z</time>
      </trkpt>
      <trkpt lat="44.69295" lon="5.6001">
        <ele>923.8</ele>
        <time>2011-06-09T10:32:56Z</time>
      </trkpt>
      <trkpt lat="44.69291" lon="5.60012">
        <ele>924.2</ele>
        <time>2011-06-09T10:34:04Z</time>
      </trkpt>
      <trkpt lat="44.69299" lon="5.60008">
        <ele>923.6</ele>
        <time>2011-06-09T10:34:46Z</time>
      </trkpt>
      <trkpt lat="44.69297" lon="5.6001">
        <ele>923.4</ele>
        <time>2011-06-09T10:35:14Z</time>
      </trkpt>
      <trkpt lat="44.69292" lon="5.6001">
        <ele>923.8</ele>
        <time>2011-06-09T10:36:15Z</time>
      </trkpt>
      <trkpt lat="44.69292" lon="5.60009">
        <ele>924</ele>
        <time>2011-06-09T10:36:49Z</time>
      </trkpt>
      <trkpt lat="44.69294" lon="5.60007">
        <ele>924.4</ele>
        <time>2011-06-09T10:37:05Z</time>
      </trkpt>
      <trkpt lat="44.6929" lon="5.60009">
        <ele>925</ele>
        <time>2011-06-09T10:37:32Z</time>
      </trkpt>
      <trkpt lat="44.69291" lon="5.60012">
        <ele>923.4</ele>
        <time>2011-06-09T10:38:51Z</time>
      </trkpt>
      <trkpt lat="44.69295" lon="5.6001">
        <ele>924.5</ele>
        <time>2011-06-09T10:39:20Z</time>
      </trkpt>
      <trkpt lat="44.69294" lon="5.60009">
        <ele>923.9</ele>
        <time>2011-06-09T10:39:57Z</time>
      </trkpt>
      <trkpt lat="44.69297" lon="5.60006">
        <ele>923.5</ele>
        <time>2011-06-09T10:40:41Z</time>
      </trkpt>
      <trkpt lat="44.69294" lon="5.60011">
        <ele>924.6</ele>
        <time>2011-06-09T10:41:31Z</time>
      </trkpt>
      <trkpt lat="44.69295" lon="5.60015">
        <ele>924.3</ele>
        <time>2011-06-09T10:42:02Z</time>
      </trkpt>
      <trkpt lat="44.69298" lon="5.60011">
        <ele>924</ele>
        <time>2011-06-09T10:42:23Z</time>
      </trkpt>
      <trkpt lat="44.6929" lon="5.60019">
        <ele>922.4</ele>
        <time>2011-06-09T10:44:19Z</time>
      </trkpt>
      <trkpt lat="44.69301" lon="5.60009">
        <ele>924.2</ele>
        <time>2011-06-09T10:45:34Z</time>
      </trkpt>
      <trkpt lat="44.69299" lon="5.60006">
        <ele>922.3</ele>
        <time>2011-06-09T10:46:20Z</time>
      </trkpt>
      <trkpt lat="44.69301" lon="5.60003">
        <ele>923.4</ele>
        <time>2011-06-09T10:46:58Z</time>
      </trkpt>
      <trkpt lat="44.69299" lon="5.60003">
        <ele>923.2</ele>
        <time>2011-06-09T10:47:44Z</time>
      </trkpt>
      <trkpt lat="44.693" lon="5.60002">
        <ele>923.8</ele>
        <time>2011-06-09T10:48:28Z</time>
      </trkpt>
      <trkpt lat="44.6929" lon="5.60008">
        <ele>924.1</ele>
        <time>2011-06-09T10:49:53Z</time>
      </trkpt>
      <trkpt lat="44.6929" lon="5.60011">
        <ele>923.5</ele>
        <time>2011-06-09T10:50:32Z</time>
      </trkpt>
      <trkpt lat="44.69286" lon="5.60006">
        <ele>922.7</ele>
        <time>2011-06-09T10:50:57Z</time>
      </trkpt>
      <trkpt lat="44.69293" lon="5.60005">
        <ele>923.4</ele>
        <time>2011-06-09T10:52:18Z</time>
      </trkpt>
      <trkpt lat="44.69297" lon="5.60002">
        <ele>922.5</ele>
        <time>2011-06-09T10:52:50Z</time>
      </trkpt>
      <trkpt lat="44.69291" lon="5.60011">
        <ele>922.8</ele>
        <time>2011-06-09T10:53:06Z</time>
      </trkpt>
      <trkpt lat="44.69288" lon="5.60021">
        <ele>923.7</ele>
        <time>2011-06-09T10:53:24Z</time>
      </trkpt>
      <trkpt lat="44.69294" lon="5.60014">
        <ele>923.9</ele>
        <time>2011-06-09T10:54:11Z</time>
      </trkpt>
      <trkpt lat="44.69291" lon="5.6001">
        <ele>923.5</ele>
        <time>2011-06-09T10:55:06Z</time>
      </trkpt>
      <trkpt lat="44.69298" lon="5.60008">
        <ele>923.3</ele>
        <time>2011-06-09T10:57:46Z</time>
      </trkpt>
      <trkpt lat="44.69297" lon="5.60008">
        <ele>923.4</ele>
        <time>2011-06-09T10:59:01Z</time>
      </trkpt>
      <trkpt lat="44.69294" lon="5.6001">
        <ele>924.2</ele>
        <time>2011-06-09T11:00:33Z</time>
      </trkpt>
      <trkpt lat="44.69294" lon="5.60009">
        <ele>922.7</ele>
        <time>2011-06-09T11:01:33Z</time>
      </trkpt>
      <trkpt lat="44.69287" lon="5.60013">
        <ele>922</ele>
        <time>2011-06-09T11:02:33Z</time>
      </trkpt>
      <trkpt lat="44.69293" lon="5.60012">
        <ele>922</ele>
        <time>2011-06-09T11:02:46Z</time>
      </trkpt>
      <trkpt lat="44.69293" lon="5.60014">
        <ele>922</ele>
        <time>2011-06-09T11:03:19Z</time>
      </trkpt>
      <trkpt lat="44.69288" lon="5.60017">
        <ele>921.7</ele>
        <time>2011-06-09T11:03:39Z</time>
      </trkpt>
      <trkpt lat="44.69292" lon="5.60019">
        <ele>922.5</ele>
        <time>2011-06-09T11:04:20Z</time>
      </trkpt>
      <trkpt lat="44.69293" lon="5.60021">
        <ele>922.3</ele>
        <time>2011-06-09T11:05:16Z</time>
      </trkpt>
      <trkpt lat="44.69294" lon="5.60022">
        <ele>922.1</ele>
        <time>2011-06-09T11:06:13Z</time>
      </trkpt>
      <trkpt lat="44.69292" lon="5.60028">
        <ele>922.1</ele>
        <time>2011-06-09T11:07:31Z</time>
      </trkpt>
      <trkpt lat="44.69296" lon="5.60027">
        <ele>922</ele>
        <time>2011-06-09T11:11:47Z</time>
      </trkpt>
      <trkpt lat="44.69285" lon="5.60044">
        <ele>919</ele>
        <time>2011-06-09T11:12:07Z</time>
      </trkpt>
      <trkpt lat="44.69278" lon="5.60074">
        <ele>917.5</ele>
        <time>2011-06-09T11:12:16Z</time>
      </trkpt>
      <trkpt lat="44.69273" lon="5.60072">
        <ele>916.1</ele>
        <time>2011-06-09T11:12:19Z</time>
      </trkpt>
      <trkpt lat="44.69266" lon="5.60017">
        <ele>911.7</ele>
        <time>2011-06-09T11:12:32Z</time>
      </trkpt>
      <trkpt lat="44.69249" lon="5.60005">
        <ele>907</ele>
        <time>2011-06-09T11:12:42Z</time>
      </trkpt>
      <trkpt lat="44.69245" lon="5.59987">
        <ele>903.7</ele>
        <time>2011-06-09T11:12:47Z</time>
      </trkpt>
      <trkpt lat="44.69238" lon="5.59974">
        <ele>901.7</ele>
        <time>2011-06-09T11:12:51Z</time>
      </trkpt>
      <trkpt lat="44.69144" lon="5.59942">
        <ele>896.4</ele>
        <time>2011-06-09T11:13:12Z</time>
      </trkpt>
      <trkpt lat="44.6912" lon="5.59915">
        <ele>893.3</ele>
        <time>2011-06-09T11:13:19Z</time>
      </trkpt>
      <trkpt lat="44.6909" lon="5.59786">
        <ele>890.2</ele>
        <time>2011-06-09T11:13:38Z</time>
      </trkpt>
      <trkpt lat="44.69066" lon="5.59745">
        <ele>889.9</ele>
        <time>2011-06-09T11:13:44Z</time>
      </trkpt>
      <trkpt lat="44.68987" lon="5.59705">
        <ele>883.4</ele>
        <time>2011-06-09T11:14:21Z</time>
      </trkpt>
      <trkpt lat="44.68939" lon="5.59697">
        <ele>880.2</ele>
        <time>2011-06-09T11:15:12Z</time>
      </trkpt>
      <trkpt lat="44.68929" lon="5.597">
        <ele>880.3</ele>
        <time>2011-06-09T11:15:14Z</time>
      </trkpt>
      <trkpt lat="44.68855" lon="5.59777">
        <ele>877.4</ele>
        <time>2011-06-09T11:15:35Z</time>
      </trkpt>
      <trkpt lat="44.68829" lon="5.59789">
        <ele>876.5</ele>
        <time>2011-06-09T11:15:41Z</time>
      </trkpt>
      <trkpt lat="44.6878" lon="5.59792">
        <ele>874.2</ele>
        <time>2011-06-09T11:15:59Z</time>
      </trkpt>
      <trkpt lat="44.6876" lon="5.59836">
        <ele>878.9</ele>
        <time>2011-06-09T11:16:18Z</time>
      </trkpt>
      <trkpt lat="44.68743" lon="5.59846">
        <ele>881.5</ele>
        <time>2011-06-09T11:16:28Z</time>
      </trkpt>
      <trkpt lat="44.68733" lon="5.59871">
        <ele>881.8</ele>
        <time>2011-06-09T11:16:41Z</time>
      </trkpt>
      <trkpt lat="44.68687" lon="5.59905">
        <ele>890.7</ele>
        <time>2011-06-09T11:17:23Z</time>
      </trkpt>
      <trkpt lat="44.68686" lon="5.59906">
        <ele>891</ele>
        <time>2011-06-09T11:17:24Z</time>
      </trkpt>
      <trkpt lat="44.68655" lon="5.5992">
        <ele>896.9</ele>
        <time>2011-06-09T11:17:54Z</time>
      </trkpt>
      <trkpt lat="44.6864" lon="5.59918">
        <ele>899.7</ele>
        <time>2011-06-09T11:18:09Z</time>
      </trkpt>
      <trkpt lat="44.68626" lon="5.59965">
        <ele>906.8</ele>
        <time>2011-06-09T11:18:45Z</time>
      </trkpt>
      <trkpt lat="44.6862" lon="5.59979">
        <ele>909.4</ele>
        <time>2011-06-09T11:18:56Z</time>
      </trkpt>
      <trkpt lat="44.68613" lon="5.60018">
        <ele>916.2</ele>
        <time>2011-06-09T11:19:25Z</time>
      </trkpt>
      <trkpt lat="44.68598" lon="5.60064">
        <ele>927</ele>
        <time>2011-06-09T11:20:14Z</time>
      </trkpt>
      <trkpt lat="44.68581" lon="5.60086">
        <ele>931.9</ele>
        <time>2011-06-09T11:20:40Z</time>
      </trkpt>
      <trkpt lat="44.6858" lon="5.60093">
        <ele>931.5</ele>
        <time>2011-06-09T11:23:53Z</time>
      </trkpt>
      <trkpt lat="44.68554" lon="5.60161">
        <ele>932.6</ele>
        <time>2011-06-09T11:24:30Z</time>
      </trkpt>
      <trkpt lat="44.68491" lon="5.60276">
        <ele>936.9</ele>
        <time>2011-06-09T11:25:32Z</time>
      </trkpt>
      <trkpt lat="44.68486" lon="5.60294">
        <ele>937.1</ele>
        <time>2011-06-09T11:25:41Z</time>
      </trkpt>
      <trkpt lat="44.68485" lon="5.60312">
        <ele>938.1</ele>
        <time>2011-06-09T11:25:50Z</time>
      </trkpt>
      <trkpt lat="44.6849" lon="5.60328">
        <ele>940.5</ele>
        <time>2011-06-09T11:25:59Z</time>
      </trkpt>
      <trkpt lat="44.68485" lon="5.60342">
        <ele>940.2</ele>
        <time>2011-06-09T11:26:05Z</time>
      </trkpt>
      <trkpt lat="44.68456" lon="5.6035">
        <ele>944.6</ele>
        <time>2011-06-09T11:26:26Z</time>
      </trkpt>
      <trkpt lat="44.68431" lon="5.60387">
        <ele>947.7</ele>
        <time>2011-06-09T11:26:51Z</time>
      </trkpt>
      <trkpt lat="44.68424" lon="5.60427">
        <ele>947.2</ele>
        <time>2011-06-09T11:27:07Z</time>
      </trkpt>
      <trkpt lat="44.6841" lon="5.60449">
        <ele>947.8</ele>
        <time>2011-06-09T11:27:17Z</time>
      </trkpt>
      <trkpt lat="44.68403" lon="5.60485">
        <ele>947.7</ele>
        <time>2011-06-09T11:27:30Z</time>
      </trkpt>
      <trkpt lat="44.68344" lon="5.60581">
        <ele>950</ele>
        <time>2011-06-09T11:28:11Z</time>
      </trkpt>
      <trkpt lat="44.68341" lon="5.60636">
        <ele>947.7</ele>
        <time>2011-06-09T11:28:23Z</time>
      </trkpt>
      <trkpt lat="44.68337" lon="5.60647">
        <ele>945.7</ele>
        <time>2011-06-09T11:28:29Z</time>
      </trkpt>
      <trkpt lat="44.68313" lon="5.60656">
        <ele>946.5</ele>
        <time>2011-06-09T11:28:43Z</time>
      </trkpt>
      <trkpt lat="44.68294" lon="5.60653">
        <ele>950.4</ele>
        <time>2011-06-09T11:28:55Z</time>
      </trkpt>
      <trkpt lat="44.68267" lon="5.60699">
        <ele>961</ele>
        <time>2011-06-09T11:29:50Z</time>
      </trkpt>
      <trkpt lat="44.68237" lon="5.6073">
        <ele>967.6</ele>
        <time>2011-06-09T11:30:26Z</time>
      </trkpt>
      <trkpt lat="44.68191" lon="5.60756">
        <ele>976</ele>
        <time>2011-06-09T11:31:13Z</time>
      </trkpt>
      <trkpt lat="44.68187" lon="5.60786">
        <ele>981.1</ele>
        <time>2011-06-09T11:31:35Z</time>
      </trkpt>
      <trkpt lat="44.68199" lon="5.60792">
        <ele>982.7</ele>
        <time>2011-06-09T11:33:34Z</time>
      </trkpt>
      <trkpt lat="44.68183" lon="5.60907">
        <ele>984.9</ele>
        <time>2011-06-09T11:34:21Z</time>
      </trkpt>
      <trkpt lat="44.68171" lon="5.60939">
        <ele>988.5</ele>
        <time>2011-06-09T11:34:39Z</time>
      </trkpt>
      <trkpt lat="44.6811" lon="5.61026">
        <ele>997.5</ele>
        <time>2011-06-09T11:35:50Z</time>
      </trkpt>
      <trkpt lat="44.68075" lon="5.61047">
        <ele>1003.8</ele>
        <time>2011-06-09T11:36:23Z</time>
      </trkpt>
      <trkpt lat="44.68057" lon="5.61061">
        <ele>1005.4</ele>
        <time>2011-06-09T11:36:41Z</time>
      </trkpt>
      <trkpt lat="44.68049" lon="5.61089">
        <ele>1008.8</ele>
        <time>2011-06-09T11:36:58Z</time>
      </trkpt>
      <trkpt lat="44.68032" lon="5.61106">
        <ele>1011.3</ele>
        <time>2011-06-09T11:37:14Z</time>
      </trkpt>
      <trkpt lat="44.68012" lon="5.61112">
        <ele>1012</ele>
        <time>2011-06-09T11:37:28Z</time>
      </trkpt>
      <trkpt lat="44.68001" lon="5.61137">
        <ele>1013.3</ele>
        <time>2011-06-09T11:37:43Z</time>
      </trkpt>
      <trkpt lat="44.67985" lon="5.61145">
        <ele>1014.8</ele>
        <time>2011-06-09T11:37:58Z</time>
      </trkpt>
      <trkpt lat="44.67976" lon="5.61171">
        <ele>1018.1</ele>
        <time>2011-06-09T11:38:24Z</time>
      </trkpt>
      <trkpt lat="44.67974" lon="5.61169">
        <ele>1017.8</ele>
        <time>2011-06-09T11:38:42Z</time>
      </trkpt>
      <trkpt lat="44.67966" lon="5.61169">
        <ele>1017.3</ele>
        <time>2011-06-09T11:39:07Z</time>
      </trkpt>
      <trkpt lat="44.6795" lon="5.61179">
        <ele>1019.2</ele>
        <time>2011-06-09T11:39:23Z</time>
      </trkpt>
      <trkpt lat="44.67934" lon="5.6118">
        <ele>1021.4</ele>
        <time>2011-06-09T11:39:37Z</time>
      </trkpt>
      <trkpt lat="44.6791" lon="5.61167">
        <ele>1022.4</ele>
        <time>2011-06-09T11:39:57Z</time>
      </trkpt>
      <trkpt lat="44.67903" lon="5.61175">
        <ele>1022.2</ele>
        <time>2011-06-09T11:40:04Z</time>
      </trkpt>
      <trkpt lat="44.67918" lon="5.61195">
        <ele>1026</ele>
        <time>2011-06-09T11:40:19Z</time>
      </trkpt>
      <trkpt lat="44.67922" lon="5.61224">
        <ele>1030.8</ele>
        <time>2011-06-09T11:40:49Z</time>
      </trkpt>
      <trkpt lat="44.67933" lon="5.61245">
        <ele>1029.4</ele>
        <time>2011-06-09T11:41:02Z</time>
      </trkpt>
      <trkpt lat="44.67916" lon="5.61271">
        <ele>1033.2</ele>
        <time>2011-06-09T11:41:22Z</time>
      </trkpt>
      <trkpt lat="44.67903" lon="5.6131">
        <ele>1036.6</ele>
        <time>2011-06-09T11:42:01Z</time>
      </trkpt>
      <trkpt lat="44.67874" lon="5.61374">
        <ele>1039.4</ele>
        <time>2011-06-09T11:42:51Z</time>
      </trkpt>
      <trkpt lat="44.67776" lon="5.61499">
        <ele>1037.4</ele>
        <time>2011-06-09T11:43:39Z</time>
      </trkpt>
      <trkpt lat="44.6777" lon="5.61525">
        <ele>1040.1</ele>
        <time>2011-06-09T11:43:51Z</time>
      </trkpt>
      <trkpt lat="44.67745" lon="5.61534">
        <ele>1042.9</ele>
        <time>2011-06-09T11:44:07Z</time>
      </trkpt>
      <trkpt lat="44.67732" lon="5.61551">
        <ele>1044.7</ele>
        <time>2011-06-09T11:44:20Z</time>
      </trkpt>
      <trkpt lat="44.67728" lon="5.61564">
        <ele>1046.9</ele>
        <time>2011-06-09T11:44:29Z</time>
      </trkpt>
      <trkpt lat="44.67729" lon="5.61602">
        <ele>1051.7</ele>
        <time>2011-06-09T11:44:53Z</time>
      </trkpt>
      <trkpt lat="44.67726" lon="5.61616">
        <ele>1053.7</ele>
        <time>2011-06-09T11:45:02Z</time>
      </trkpt>
      <trkpt lat="44.67709" lon="5.61651">
        <ele>1056.1</ele>
        <time>2011-06-09T11:45:27Z</time>
      </trkpt>
      <trkpt lat="44.67706" lon="5.61663">
        <ele>1056.4</ele>
        <time>2011-06-09T11:45:34Z</time>
      </trkpt>
      <trkpt lat="44.67712" lon="5.61702">
        <ele>1061.3</ele>
        <time>2011-06-09T11:45:59Z</time>
      </trkpt>
      <trkpt lat="44.67699" lon="5.61735">
        <ele>1063.7</ele>
        <time>2011-06-09T11:46:22Z</time>
      </trkpt>
      <trkpt lat="44.67711" lon="5.61779">
        <ele>1063.9</ele>
        <time>2011-06-09T11:47:48Z</time>
      </trkpt>
      <trkpt lat="44.67712" lon="5.61786">
        <ele>1064.3</ele>
        <time>2011-06-09T11:47:52Z</time>
      </trkpt>
      <trkpt lat="44.67708" lon="5.61801">
        <ele>1064.8</ele>
        <time>2011-06-09T11:48:50Z</time>
      </trkpt>
      <trkpt lat="44.67705" lon="5.61786">
        <ele>1065.1</ele>
        <time>2011-06-09T11:49:03Z</time>
      </trkpt>
      <trkpt lat="44.67695" lon="5.61773">
        <ele>1063.2</ele>
        <time>2011-06-09T11:49:08Z</time>
      </trkpt>
      <trkpt lat="44.67635" lon="5.61741">
        <ele>1048.8</ele>
        <time>2011-06-09T11:49:27Z</time>
      </trkpt>
      <trkpt lat="44.67625" lon="5.61726">
        <ele>1046.6</ele>
        <time>2011-06-09T11:49:30Z</time>
      </trkpt>
      <trkpt lat="44.67618" lon="5.61703">
        <ele>1043</ele>
        <time>2011-06-09T11:49:33Z</time>
      </trkpt>
      <trkpt lat="44.67584" lon="5.61652">
        <ele>1031.1</ele>
        <time>2011-06-09T11:49:45Z</time>
      </trkpt>
      <trkpt lat="44.67581" lon="5.61634">
        <ele>1028.4</ele>
        <time>2011-06-09T11:49:48Z</time>
      </trkpt>
      <trkpt lat="44.67571" lon="5.61624">
        <ele>1027.3</ele>
        <time>2011-06-09T11:49:52Z</time>
      </trkpt>
      <trkpt lat="44.67537" lon="5.6161">
        <ele>1025.3</ele>
        <time>2011-06-09T11:50:02Z</time>
      </trkpt>
      <trkpt lat="44.67532" lon="5.6161">
        <ele>1025.2</ele>
        <time>2011-06-09T11:50:05Z</time>
      </trkpt>
      <trkpt lat="44.67498" lon="5.61657">
        <ele>1028.7</ele>
        <time>2011-06-09T11:50:37Z</time>
      </trkpt>
      <trkpt lat="44.67473" lon="5.61702">
        <ele>1032.4</ele>
        <time>2011-06-09T11:51:06Z</time>
      </trkpt>
      <trkpt lat="44.67463" lon="5.61722">
        <ele>1034</ele>
        <time>2011-06-09T11:55:08Z</time>
      </trkpt>
      <trkpt lat="44.67441" lon="5.61785">
        <ele>1038.1</ele>
        <time>2011-06-09T11:55:52Z</time>
      </trkpt>
      <trkpt lat="44.6732" lon="5.61967">
        <ele>1045</ele>
        <time>2011-06-09T11:57:05Z</time>
      </trkpt>
      <trkpt lat="44.67255" lon="5.62029">
        <ele>1045.8</ele>
        <time>2011-06-09T11:57:30Z</time>
      </trkpt>
      <trkpt lat="44.67191" lon="5.62169">
        <ele>1050.6</ele>
        <time>2011-06-09T11:58:10Z</time>
      </trkpt>
      <trkpt lat="44.67134" lon="5.62519">
        <ele>1066.2</ele>
        <time>2011-06-09T12:00:03Z</time>
      </trkpt>
      <trkpt lat="44.67108" lon="5.6257">
        <ele>1069.9</ele>
        <time>2011-06-09T12:00:27Z</time>
      </trkpt>
      <trkpt lat="44.67107" lon="5.62606">
        <ele>1072</ele>
        <time>2011-06-09T12:00:41Z</time>
      </trkpt>
      <trkpt lat="44.67103" lon="5.62612">
        <ele>1072.4</ele>
        <time>2011-06-09T12:00:44Z</time>
      </trkpt>
      <trkpt lat="44.67038" lon="5.62666">
        <ele>1080.7</ele>
        <time>2011-06-09T12:01:27Z</time>
      </trkpt>
      <trkpt lat="44.67006" lon="5.62715">
        <ele>1082.8</ele>
        <time>2011-06-09T12:01:54Z</time>
      </trkpt>
      <trkpt lat="44.66917" lon="5.62776">
        <ele>1088.9</ele>
        <time>2011-06-09T12:02:45Z</time>
      </trkpt>
      <trkpt lat="44.66846" lon="5.62865">
        <ele>1096.2</ele>
        <time>2011-06-09T12:03:31Z</time>
      </trkpt>
      <trkpt lat="44.66812" lon="5.62873">
        <ele>1098.2</ele>
        <time>2011-06-09T12:04:17Z</time>
      </trkpt>
      <trkpt lat="44.66736" lon="5.62956">
        <ele>1108.7</ele>
        <time>2011-06-09T12:05:15Z</time>
      </trkpt>
      <trkpt lat="44.66733" lon="5.62963">
        <ele>1109.1</ele>
        <time>2011-06-09T12:05:18Z</time>
      </trkpt>
      <trkpt lat="44.66721" lon="5.63066">
        <ele>1113.9</ele>
        <time>2011-06-09T12:06:01Z</time>
      </trkpt>
      <trkpt lat="44.66707" lon="5.63072">
        <ele>1114.6</ele>
        <time>2011-06-09T12:06:12Z</time>
      </trkpt>
      <trkpt lat="44.66689" lon="5.63067">
        <ele>1116.7</ele>
        <time>2011-06-09T12:06:23Z</time>
      </trkpt>
      <trkpt lat="44.66676" lon="5.6309">
        <ele>1118</ele>
        <time>2011-06-09T12:06:34Z</time>
      </trkpt>
      <trkpt lat="44.66668" lon="5.63096">
        <ele>1118.6</ele>
        <time>2011-06-09T12:06:38Z</time>
      </trkpt>
      <trkpt lat="44.66653" lon="5.63122">
        <ele>1121.4</ele>
        <time>2011-06-09T12:06:50Z</time>
      </trkpt>
      <trkpt lat="44.66638" lon="5.63135">
        <ele>1121.6</ele>
        <time>2011-06-09T12:06:58Z</time>
      </trkpt>
      <trkpt lat="44.66599" lon="5.6315">
        <ele>1124.8</ele>
        <time>2011-06-09T12:07:19Z</time>
      </trkpt>
      <trkpt lat="44.66578" lon="5.63183">
        <ele>1128.9</ele>
        <time>2011-06-09T12:07:36Z</time>
      </trkpt>
      <trkpt lat="44.66563" lon="5.63234">
        <ele>1131.6</ele>
        <time>2011-06-09T12:07:59Z</time>
      </trkpt>
      <trkpt lat="44.66574" lon="5.6337">
        <ele>1136.8</ele>
        <time>2011-06-09T12:08:43Z</time>
      </trkpt>
      <trkpt lat="44.66563" lon="5.6345">
        <ele>1140.3</ele>
        <time>2011-06-09T12:09:13Z</time>
      </trkpt>
      <trkpt lat="44.66579" lon="5.63502">
        <ele>1145.3</ele>
        <time>2011-06-09T12:09:37Z</time>
      </trkpt>
      <trkpt lat="44.66578" lon="5.63532">
        <ele>1148.2</ele>
        <time>2011-06-09T12:09:51Z</time>
      </trkpt>
      <trkpt lat="44.66553" lon="5.63603">
        <ele>1153.7</ele>
        <time>2011-06-09T12:10:34Z</time>
      </trkpt>
      <trkpt lat="44.66551" lon="5.63684">
        <ele>1159.2</ele>
        <time>2011-06-09T12:11:19Z</time>
      </trkpt>
      <trkpt lat="44.66539" lon="5.63754">
        <ele>1165.2</ele>
        <time>2011-06-09T12:11:59Z</time>
      </trkpt>
      <trkpt lat="44.66508" lon="5.63804">
        <ele>1170.3</ele>
        <time>2011-06-09T12:12:33Z</time>
      </trkpt>
      <trkpt lat="44.66494" lon="5.63819">
        <ele>1172.3</ele>
        <time>2011-06-09T12:12:46Z</time>
      </trkpt>
      <trkpt lat="44.66462" lon="5.63831">
        <ele>1175.9</ele>
        <time>2011-06-09T12:13:10Z</time>
      </trkpt>
      <trkpt lat="44.66431" lon="5.63871">
        <ele>1179.4</ele>
        <time>2011-06-09T12:13:39Z</time>
      </trkpt>
      <trkpt lat="44.66413" lon="5.63849">
        <ele>1180.3</ele>
        <time>2011-06-09T12:13:57Z</time>
      </trkpt>
      <trkpt lat="44.66394" lon="5.63846">
        <ele>1181.9</ele>
        <time>2011-06-09T12:14:11Z</time>
      </trkpt>
      <trkpt lat="44.66361" lon="5.63864">
        <ele>1186.5</ele>
        <time>2011-06-09T12:14:37Z</time>
      </trkpt>
      <trkpt lat="44.6632" lon="5.63868">
        <ele>1188.3</ele>
        <time>2011-06-09T12:15:00Z</time>
      </trkpt>
      <trkpt lat="44.663" lon="5.63881">
        <ele>1189.3</ele>
        <time>2011-06-09T12:15:11Z</time>
      </trkpt>
      <trkpt lat="44.66272" lon="5.63881">
        <ele>1191.5</ele>
        <time>2011-06-09T12:15:26Z</time>
      </trkpt>
      <trkpt lat="44.66244" lon="5.63909">
        <ele>1193.9</ele>
        <time>2011-06-09T12:15:46Z</time>
      </trkpt>
      <trkpt lat="44.6623" lon="5.63939">
        <ele>1198.1</ele>
        <time>2011-06-09T12:16:03Z</time>
      </trkpt>
      <trkpt lat="44.66231" lon="5.63954">
        <ele>1199.7</ele>
        <time>2011-06-09T12:17:34Z</time>
      </trkpt>
      <trkpt lat="44.66223" lon="5.63956">
        <ele>1198.1</ele>
        <time>2011-06-09T12:19:22Z</time>
      </trkpt>
      <trkpt lat="44.66224" lon="5.63955">
        <ele>1198.7</ele>
        <time>2011-06-09T12:21:08Z</time>
      </trkpt>
      <trkpt lat="44.66232" lon="5.63984">
        <ele>1202.7</ele>
        <time>2011-06-09T12:21:27Z</time>
      </trkpt>
      <trkpt lat="44.66248" lon="5.63997">
        <ele>1205.3</ele>
        <time>2011-06-09T12:21:44Z</time>
      </trkpt>
      <trkpt lat="44.66317" lon="5.63947">
        <ele>1215.9</ele>
        <time>2011-06-09T12:22:39Z</time>
      </trkpt>
      <trkpt lat="44.66325" lon="5.63945">
        <ele>1216</ele>
        <time>2011-06-09T12:22:44Z</time>
      </trkpt>
      <trkpt lat="44.66351" lon="5.63957">
        <ele>1221.2</ele>
        <time>2011-06-09T12:23:10Z</time>
      </trkpt>
      <trkpt lat="44.66369" lon="5.63953">
        <ele>1223.3</ele>
        <time>2011-06-09T12:23:26Z</time>
      </trkpt>
      <trkpt lat="44.66389" lon="5.63967">
        <ele>1226.5</ele>
        <time>2011-06-09T12:23:46Z</time>
      </trkpt>
      <trkpt lat="44.66415" lon="5.64013">
        <ele>1232.7</ele>
        <time>2011-06-09T12:24:21Z</time>
      </trkpt>
      <trkpt lat="44.66423" lon="5.64045">
        <ele>1234.9</ele>
        <time>2011-06-09T12:24:42Z</time>
      </trkpt>
      <trkpt lat="44.66425" lon="5.64074">
        <ele>1237.1</ele>
        <time>2011-06-09T12:24:58Z</time>
      </trkpt>
      <trkpt lat="44.66439" lon="5.64086">
        <ele>1237.5</ele>
        <time>2011-06-09T12:25:09Z</time>
      </trkpt>
      <trkpt lat="44.66467" lon="5.6408">
        <ele>1239.4</ele>
        <time>2011-06-09T12:25:25Z</time>
      </trkpt>
      <trkpt lat="44.66499" lon="5.64043">
        <ele>1242.8</ele>
        <time>2011-06-09T12:25:48Z</time>
      </trkpt>
      <trkpt lat="44.66506" lon="5.64027">
        <ele>1244.4</ele>
        <time>2011-06-09T12:25:56Z</time>
      </trkpt>
      <trkpt lat="44.66516" lon="5.64032">
        <ele>1244.5</ele>
        <time>2011-06-09T12:26:05Z</time>
      </trkpt>
      <trkpt lat="44.66499" lon="5.64119">
        <ele>1251.3</ele>
        <time>2011-06-09T12:26:47Z</time>
      </trkpt>
      <trkpt lat="44.66493" lon="5.64128">
        <ele>1250.6</ele>
        <time>2011-06-09T12:26:53Z</time>
      </trkpt>
      <trkpt lat="44.66477" lon="5.64135">
        <ele>1254.7</ele>
        <time>2011-06-09T12:27:05Z</time>
      </trkpt>
      <trkpt lat="44.66468" lon="5.64147">
        <ele>1255</ele>
        <time>2011-06-09T12:27:14Z</time>
      </trkpt>
      <trkpt lat="44.66459" lon="5.64169">
        <ele>1257.5</ele>
        <time>2011-06-09T12:27:27Z</time>
      </trkpt>
      <trkpt lat="44.66445" lon="5.64176">
        <ele>1260.4</ele>
        <time>2011-06-09T12:27:39Z</time>
      </trkpt>
      <trkpt lat="44.66402" lon="5.64139">
        <ele>1267.1</ele>
        <time>2011-06-09T12:28:21Z</time>
      </trkpt>
      <trkpt lat="44.66384" lon="5.64138">
        <ele>1268.7</ele>
        <time>2011-06-09T12:28:50Z</time>
      </trkpt>
      <trkpt lat="44.66314" lon="5.64219">
        <ele>1278.7</ele>
        <time>2011-06-09T12:29:46Z</time>
      </trkpt>
      <trkpt lat="44.663" lon="5.64272">
        <ele>1285.3</ele>
        <time>2011-06-09T12:30:19Z</time>
      </trkpt>
      <trkpt lat="44.66282" lon="5.64291">
        <ele>1288.5</ele>
        <time>2011-06-09T12:30:39Z</time>
      </trkpt>
      <trkpt lat="44.66266" lon="5.64291">
        <ele>1288.9</ele>
        <time>2011-06-09T12:30:49Z</time>
      </trkpt>
      <trkpt lat="44.66266" lon="5.64304">
        <ele>1290</ele>
        <time>2011-06-09T12:31:00Z</time>
      </trkpt>
      <trkpt lat="44.66276" lon="5.64303">
        <ele>1291.1</ele>
        <time>2011-06-09T12:31:10Z</time>
      </trkpt>
      <trkpt lat="44.66311" lon="5.64277">
        <ele>1295.6</ele>
        <time>2011-06-09T12:31:45Z</time>
      </trkpt>
      <trkpt lat="44.66329" lon="5.64259">
        <ele>1299.3</ele>
        <time>2011-06-09T12:32:03Z</time>
      </trkpt>
      <trkpt lat="44.6634" lon="5.64255">
        <ele>1300.2</ele>
        <time>2011-06-09T12:32:12Z</time>
      </trkpt>
      <trkpt lat="44.66386" lon="5.6426">
        <ele>1306.6</ele>
        <time>2011-06-09T12:32:51Z</time>
      </trkpt>
      <trkpt lat="44.6643" lon="5.64306">
        <ele>1312.8</ele>
        <time>2011-06-09T12:33:36Z</time>
      </trkpt>
      <trkpt lat="44.66451" lon="5.64358">
        <ele>1318.9</ele>
        <time>2011-06-09T12:34:13Z</time>
      </trkpt>
      <trkpt lat="44.665" lon="5.64403">
        <ele>1326</ele>
        <time>2011-06-09T12:35:04Z</time>
      </trkpt>
      <trkpt lat="44.66529" lon="5.64446">
        <ele>1333.1</ele>
        <time>2011-06-09T12:35:39Z</time>
      </trkpt>
      <trkpt lat="44.66557" lon="5.64473">
        <ele>1337.2</ele>
        <time>2011-06-09T12:36:11Z</time>
      </trkpt>
      <trkpt lat="44.66615" lon="5.64517">
        <ele>1345.5</ele>
        <time>2011-06-09T12:37:10Z</time>
      </trkpt>
      <trkpt lat="44.66634" lon="5.64522">
        <ele>1348.7</ele>
        <time>2011-06-09T12:37:27Z</time>
      </trkpt>
      <trkpt lat="44.66688" lon="5.6457">
        <ele>1356.6</ele>
        <time>2011-06-09T12:38:18Z</time>
      </trkpt>
      <trkpt lat="44.66717" lon="5.64599">
        <ele>1359.9</ele>
        <time>2011-06-09T12:38:53Z</time>
      </trkpt>
      <trkpt lat="44.66729" lon="5.64602">
        <ele>1361.8</ele>
        <time>2011-06-09T12:39:03Z</time>
      </trkpt>
      <trkpt lat="44.66775" lon="5.64597">
        <ele>1368.6</ele>
        <time>2011-06-09T12:39:42Z</time>
      </trkpt>
      <trkpt lat="44.66805" lon="5.64583">
        <ele>1372.6</ele>
        <time>2011-06-09T12:40:10Z</time>
      </trkpt>
      <trkpt lat="44.66817" lon="5.64568">
        <ele>1374.9</ele>
        <time>2011-06-09T12:40:22Z</time>
      </trkpt>
      <trkpt lat="44.66824" lon="5.64543">
        <ele>1377.4</ele>
        <time>2011-06-09T12:40:38Z</time>
      </trkpt>
      <trkpt lat="44.66835" lon="5.64527">
        <ele>1379.3</ele>
        <time>2011-06-09T12:40:52Z</time>
      </trkpt>
      <trkpt lat="44.66861" lon="5.64515">
        <ele>1383.2</ele>
        <time>2011-06-09T12:41:18Z</time>
      </trkpt>
      <trkpt lat="44.66859" lon="5.64498">
        <ele>1383.8</ele>
        <time>2011-06-09T12:41:46Z</time>
      </trkpt>
      <trkpt lat="44.66868" lon="5.64467">
        <ele>1388.1</ele>
        <time>2011-06-09T12:42:08Z</time>
      </trkpt>
      <trkpt lat="44.66867" lon="5.64452">
        <ele>1390.1</ele>
        <time>2011-06-09T12:42:18Z</time>
      </trkpt>
      <trkpt lat="44.6685" lon="5.6441">
        <ele>1393.9</ele>
        <time>2011-06-09T12:42:46Z</time>
      </trkpt>
      <trkpt lat="44.66857" lon="5.64359">
        <ele>1399.9</ele>
        <time>2011-06-09T12:43:17Z</time>
      </trkpt>
      <trkpt lat="44.66873" lon="5.64316">
        <ele>1403.7</ele>
        <time>2011-06-09T12:43:48Z</time>
      </trkpt>
      <trkpt lat="44.66875" lon="5.64304">
        <ele>1405.6</ele>
        <time>2011-06-09T12:43:56Z</time>
      </trkpt>
      <trkpt lat="44.66882" lon="5.64278">
        <ele>1409</ele>
        <time>2011-06-09T12:44:16Z</time>
      </trkpt>
      <trkpt lat="44.66904" lon="5.64236">
        <ele>1414.9</ele>
        <time>2011-06-09T12:44:50Z</time>
      </trkpt>
      <trkpt lat="44.66912" lon="5.64218">
        <ele>1415.8</ele>
        <time>2011-06-09T12:45:04Z</time>
      </trkpt>
      <trkpt lat="44.6692" lon="5.64228">
        <ele>1417.8</ele>
        <time>2011-06-09T12:45:19Z</time>
      </trkpt>
      <trkpt lat="44.66922" lon="5.64219">
        <ele>1417.8</ele>
        <time>2011-06-09T12:45:38Z</time>
      </trkpt>
      <trkpt lat="44.66919" lon="5.64202">
        <ele>1417</ele>
        <time>2011-06-09T12:46:10Z</time>
      </trkpt>
      <trkpt lat="44.66932" lon="5.64202">
        <ele>1418.9</ele>
        <time>2011-06-09T12:46:35Z</time>
      </trkpt>
      <trkpt lat="44.66934" lon="5.64208">
        <ele>1418</ele>
        <time>2011-06-09T12:47:02Z</time>
      </trkpt>
      <trkpt lat="44.66927" lon="5.64209">
        <ele>1418.1</ele>
        <time>2011-06-09T12:47:18Z</time>
      </trkpt>
      <trkpt lat="44.66923" lon="5.64205">
        <ele>1417.7</ele>
        <time>2011-06-09T12:48:11Z</time>
      </trkpt>
      <trkpt lat="44.66931" lon="5.64216">
        <ele>1417.2</ele>
        <time>2011-06-09T12:49:37Z</time>
      </trkpt>
      <trkpt lat="44.6693" lon="5.6421">
        <ele>1418.3</ele>
        <time>2011-06-09T12:50:47Z</time>
      </trkpt>
      <trkpt lat="44.66924" lon="5.64197">
        <ele>1416.3</ele>
        <time>2011-06-09T12:53:52Z</time>
      </trkpt>
      <trkpt lat="44.66924" lon="5.64201">
        <ele>1416.9</ele>
        <time>2011-06-09T12:54:57Z</time>
      </trkpt>
      <trkpt lat="44.66919" lon="5.64204">
        <ele>1417.3</ele>
        <time>2011-06-09T12:56:29Z</time>
      </trkpt>
      <trkpt lat="44.66924" lon="5.64207">
        <ele>1416.5</ele>
        <time>2011-06-09T12:57:24Z</time>
      </trkpt>
      <trkpt lat="44.66919" lon="5.64207">
        <ele>1417.5</ele>
        <time>2011-06-09T12:58:04Z</time>
      </trkpt>
      <trkpt lat="44.66923" lon="5.64207">
        <ele>1416.9</ele>
        <time>2011-06-09T13:00:03Z</time>
      </trkpt>
      <trkpt lat="44.66923" lon="5.64207">
        <ele>1417.6</ele>
        <time>2011-06-09T13:01:09Z</time>
      </trkpt>
      <trkpt lat="44.66925" lon="5.64209">
        <ele>1416.6</ele>
        <time>2011-06-09T13:02:00Z</time>
      </trkpt>
      <trkpt lat="44.66917" lon="5.642">
        <ele>1416.5</ele>
        <time>2011-06-09T13:02:56Z</time>
      </trkpt>
      <trkpt lat="44.66909" lon="5.64198">
        <ele>1417.3</ele>
        <time>2011-06-09T13:03:29Z</time>
      </trkpt>
      <trkpt lat="44.66914" lon="5.64193">
        <ele>1417.3</ele>
        <time>2011-06-09T13:06:01Z</time>
      </trkpt>
      <trkpt lat="44.66923" lon="5.64195">
        <ele>1419.2</ele>
        <time>2011-06-09T13:06:11Z</time>
      </trkpt>
      <trkpt lat="44.66991" lon="5.64172">
        <ele>1423</ele>
        <time>2011-06-09T13:06:45Z</time>
      </trkpt>
      <trkpt lat="44.67005" lon="5.64152">
        <ele>1421.9</ele>
        <time>2011-06-09T13:06:59Z</time>
      </trkpt>
      <trkpt lat="44.67007" lon="5.64098">
        <ele>1420.7</ele>
        <time>2011-06-09T13:07:14Z</time>
      </trkpt>
      <trkpt lat="44.67027" lon="5.6407">
        <ele>1417.3</ele>
        <time>2011-06-09T13:07:34Z</time>
      </trkpt>
      <trkpt lat="44.67029" lon="5.64063">
        <ele>1413.1</ele>
        <time>2011-06-09T13:07:47Z</time>
      </trkpt>
      <trkpt lat="44.6701" lon="5.6408">
        <ele>1418.9</ele>
        <time>2011-06-09T13:08:17Z</time>
      </trkpt>
      <trkpt lat="44.67011" lon="5.64101">
        <ele>1420.2</ele>
        <time>2011-06-09T13:08:37Z</time>
      </trkpt>
      <trkpt lat="44.67015" lon="5.64088">
        <ele>1421.5</ele>
        <time>2011-06-09T13:08:47Z</time>
      </trkpt>
      <trkpt lat="44.67026" lon="5.64086">
        <ele>1423.5</ele>
        <time>2011-06-09T13:09:10Z</time>
      </trkpt>
      <trkpt lat="44.67015" lon="5.64096">
        <ele>1423.6</ele>
        <time>2011-06-09T13:09:20Z</time>
      </trkpt>
      <trkpt lat="44.67014" lon="5.64155">
        <ele>1421.7</ele>
        <time>2011-06-09T13:09:53Z</time>
      </trkpt>
      <trkpt lat="44.67024" lon="5.6418">
        <ele>1425.8</ele>
        <time>2011-06-09T13:10:11Z</time>
      </trkpt>
      <trkpt lat="44.67051" lon="5.64225">
        <ele>1427.4</ele>
        <time>2011-06-09T13:11:14Z</time>
      </trkpt>
      <trkpt lat="44.67045" lon="5.64235">
        <ele>1429.4</ele>
        <time>2011-06-09T13:11:40Z</time>
      </trkpt>
      <trkpt lat="44.67048" lon="5.64238">
        <ele>1429</ele>
        <time>2011-06-09T13:12:18Z</time>
      </trkpt>
      <trkpt lat="44.67051" lon="5.64227">
        <ele>1427.6</ele>
        <time>2011-06-09T13:12:32Z</time>
      </trkpt>
      <trkpt lat="44.67019" lon="5.64176">
        <ele>1423.4</ele>
        <time>2011-06-09T13:12:57Z</time>
      </trkpt>
      <trkpt lat="44.66973" lon="5.64178">
        <ele>1421.4</ele>
        <time>2011-06-09T13:13:21Z</time>
      </trkpt>
      <trkpt lat="44.66937" lon="5.642">
        <ele>1421.3</ele>
        <time>2011-06-09T13:13:31Z</time>
      </trkpt>
      <trkpt lat="44.66927" lon="5.6422">
        <ele>1419.9</ele>
        <time>2011-06-09T13:13:36Z</time>
      </trkpt>
      <trkpt lat="44.66917" lon="5.64299">
        <ele>1418.9</ele>
        <time>2011-06-09T13:13:54Z</time>
      </trkpt>
      <trkpt lat="44.66908" lon="5.64314">
        <ele>1418</ele>
        <time>2011-06-09T13:13:58Z</time>
      </trkpt>
      <trkpt lat="44.66901" lon="5.64338">
        <ele>1431.8</ele>
        <time>2011-06-09T13:14:03Z</time>
      </trkpt>
      <trkpt lat="44.669" lon="5.64361">
        <ele>1435.3</ele>
        <time>2011-06-09T13:14:08Z</time>
      </trkpt>
      <trkpt lat="44.66906" lon="5.6439">
        <ele>1436.2</ele>
        <time>2011-06-09T13:14:15Z</time>
      </trkpt>
      <trkpt lat="44.66926" lon="5.64414">
        <ele>1437.5</ele>
        <time>2011-06-09T13:14:24Z</time>
      </trkpt>
      <trkpt lat="44.66952" lon="5.64482">
        <ele>1442.5</ele>
        <time>2011-06-09T13:14:53Z</time>
      </trkpt>
      <trkpt lat="44.66965" lon="5.64503">
        <ele>1443.7</ele>
        <time>2011-06-09T13:15:18Z</time>
      </trkpt>
      <trkpt lat="44.66999" lon="5.64522">
        <ele>1452.3</ele>
        <time>2011-06-09T13:16:07Z</time>
      </trkpt>
      <trkpt lat="44.6701" lon="5.64536">
        <ele>1456.1</ele>
        <time>2011-06-09T13:16:42Z</time>
      </trkpt>
      <trkpt lat="44.67013" lon="5.64559">
        <ele>1462.2</ele>
        <time>2011-06-09T13:17:26Z</time>
      </trkpt>
      <trkpt lat="44.67009" lon="5.64584">
        <ele>1468.4</ele>
        <time>2011-06-09T13:17:58Z</time>
      </trkpt>
      <trkpt lat="44.6699" lon="5.64627">
        <ele>1477</ele>
        <time>2011-06-09T13:19:04Z</time>
      </trkpt>
      <trkpt lat="44.66974" lon="5.64668">
        <ele>1485.4</ele>
        <time>2011-06-09T13:20:03Z</time>
      </trkpt>
      <trkpt lat="44.66974" lon="5.64689">
        <ele>1489</ele>
        <time>2011-06-09T13:20:33Z</time>
      </trkpt>
      <trkpt lat="44.6697" lon="5.64705">
        <ele>1490.1</ele>
        <time>2011-06-09T13:20:45Z</time>
      </trkpt>
      <trkpt lat="44.6697" lon="5.64725">
        <ele>1492.5</ele>
        <time>2011-06-09T13:21:00Z</time>
      </trkpt>
      <trkpt lat="44.66976" lon="5.64782">
        <ele>1499.5</ele>
        <time>2011-06-09T13:21:44Z</time>
      </trkpt>
      <trkpt lat="44.66986" lon="5.64818">
        <ele>1504.4</ele>
        <time>2011-06-09T13:22:10Z</time>
      </trkpt>
      <trkpt lat="44.66989" lon="5.64844">
        <ele>1503.8</ele>
        <time>2011-06-09T13:22:25Z</time>
      </trkpt>
      <trkpt lat="44.66979" lon="5.64878">
        <ele>1503.3</ele>
        <time>2011-06-09T13:22:34Z</time>
      </trkpt>
      <trkpt lat="44.66984" lon="5.64908">
        <ele>1507.4</ele>
        <time>2011-06-09T13:24:06Z</time>
      </trkpt>
      <trkpt lat="44.66986" lon="5.64909">
        <ele>1509.1</ele>
        <time>2011-06-09T14:09:57Z</time>
      </trkpt>
      <trkpt lat="44.66986" lon="5.64913">
        <ele>1508.8</ele>
        <time>2011-06-09T14:11:51Z</time>
      </trkpt>
      <trkpt lat="44.66986" lon="5.6491">
        <ele>1509.1</ele>
        <time>2011-06-09T14:14:52Z</time>
      </trkpt>
      <trkpt lat="44.6698" lon="5.64914">
        <ele>1509</ele>
        <time>2011-06-09T14:16:54Z</time>
      </trkpt>
      <trkpt lat="44.66959" lon="5.64944">
        <ele>1507.3</ele>
        <time>2011-06-09T14:17:40Z</time>
      </trkpt>
      <trkpt lat="44.66948" lon="5.64947">
        <ele>1506.2</ele>
        <time>2011-06-09T14:17:43Z</time>
      </trkpt>
      <trkpt lat="44.6693" lon="5.6496">
        <ele>1504.9</ele>
        <time>2011-06-09T14:17:47Z</time>
      </trkpt>
      <trkpt lat="44.66911" lon="5.64987">
        <ele>1503.9</ele>
        <time>2011-06-09T14:17:55Z</time>
      </trkpt>
      <trkpt lat="44.66883" lon="5.65082">
        <ele>1497.2</ele>
        <time>2011-06-09T14:18:08Z</time>
      </trkpt>
      <trkpt lat="44.6687" lon="5.65098">
        <ele>1495.3</ele>
        <time>2011-06-09T14:18:16Z</time>
      </trkpt>
      <trkpt lat="44.66862" lon="5.65126">
        <ele>1494.4</ele>
        <time>2011-06-09T14:18:35Z</time>
      </trkpt>
      <trkpt lat="44.66859" lon="5.65179">
        <ele>1493.2</ele>
        <time>2011-06-09T14:19:30Z</time>
      </trkpt>
      <trkpt lat="44.66857" lon="5.6519">
        <ele>1491.5</ele>
        <time>2011-06-09T14:19:39Z</time>
      </trkpt>
      <trkpt lat="44.66848" lon="5.65247">
        <ele>1490.2</ele>
        <time>2011-06-09T14:20:23Z</time>
      </trkpt>
      <trkpt lat="44.66835" lon="5.65268">
        <ele>1486.9</ele>
        <time>2011-06-09T14:20:50Z</time>
      </trkpt>
      <trkpt lat="44.66828" lon="5.65294">
        <ele>1484.9</ele>
        <time>2011-06-09T14:21:28Z</time>
      </trkpt>
      <trkpt lat="44.66827" lon="5.653">
        <ele>1483.4</ele>
        <time>2011-06-09T14:21:41Z</time>
      </trkpt>
      <trkpt lat="44.66831" lon="5.653">
        <ele>1483.2</ele>
        <time>2011-06-09T14:22:29Z</time>
      </trkpt>
      <trkpt lat="44.66828" lon="5.6531">
        <ele>1482.4</ele>
        <time>2011-06-09T14:27:20Z</time>
      </trkpt>
      <trkpt lat="44.66827" lon="5.65324">
        <ele>1481.8</ele>
        <time>2011-06-09T14:27:48Z</time>
      </trkpt>
      <trkpt lat="44.66763" lon="5.65446">
        <ele>1469.1</ele>
        <time>2011-06-09T14:28:20Z</time>
      </trkpt>
      <trkpt lat="44.66725" lon="5.65474">
        <ele>1465.2</ele>
        <time>2011-06-09T14:28:32Z</time>
      </trkpt>
      <trkpt lat="44.66617" lon="5.65501">
        <ele>1456.8</ele>
        <time>2011-06-09T14:28:55Z</time>
      </trkpt>
      <trkpt lat="44.66598" lon="5.65638">
        <ele>1446.4</ele>
        <time>2011-06-09T14:29:20Z</time>
      </trkpt>
      <trkpt lat="44.66573" lon="5.65681">
        <ele>1442</ele>
        <time>2011-06-09T14:29:37Z</time>
      </trkpt>
      <trkpt lat="44.66523" lon="5.65706">
        <ele>1437.5</ele>
        <time>2011-06-09T14:30:07Z</time>
      </trkpt>
      <trkpt lat="44.66394" lon="5.65784">
        <ele>1424.6</ele>
        <time>2011-06-09T14:30:45Z</time>
      </trkpt>
      <trkpt lat="44.66388" lon="5.65793">
        <ele>1423</ele>
        <time>2011-06-09T14:30:48Z</time>
      </trkpt>
      <trkpt lat="44.66369" lon="5.65795">
        <ele>1422.6</ele>
        <time>2011-06-09T14:30:56Z</time>
      </trkpt>
      <trkpt lat="44.66304" lon="5.65835">
        <ele>1414.3</ele>
        <time>2011-06-09T14:31:39Z</time>
      </trkpt>
      <trkpt lat="44.663" lon="5.65842">
        <ele>1412.4</ele>
        <time>2011-06-09T14:32:20Z</time>
      </trkpt>
      <trkpt lat="44.66305" lon="5.65837">
        <ele>1411.5</ele>
        <time>2011-06-09T14:32:43Z</time>
      </trkpt>
      <trkpt lat="44.66312" lon="5.65834">
        <ele>1412.1</ele>
        <time>2011-06-09T14:32:54Z</time>
      </trkpt>
      <trkpt lat="44.66308" lon="5.65842">
        <ele>1412.3</ele>
        <time>2011-06-09T14:34:28Z</time>
      </trkpt>
      <trkpt lat="44.66309" lon="5.65841">
        <ele>1411.2</ele>
        <time>2011-06-09T14:35:40Z</time>
      </trkpt>
      <trkpt lat="44.66294" lon="5.65852">
        <ele>1412.6</ele>
        <time>2011-06-09T14:36:05Z</time>
      </trkpt>
      <trkpt lat="44.66303" lon="5.6585">
        <ele>1412.7</ele>
        <time>2011-06-09T14:36:51Z</time>
      </trkpt>
      <trkpt lat="44.6631" lon="5.6586">
        <ele>1413.7</ele>
        <time>2011-06-09T14:37:07Z</time>
      </trkpt>
      <trkpt lat="44.6633" lon="5.65866">
        <ele>1416.2</ele>
        <time>2011-06-09T14:37:32Z</time>
      </trkpt>
      <trkpt lat="44.66339" lon="5.65877">
        <ele>1416.5</ele>
        <time>2011-06-09T14:37:40Z</time>
      </trkpt>
      <trkpt lat="44.66342" lon="5.65898">
        <ele>1416.3</ele>
        <time>2011-06-09T14:38:06Z</time>
      </trkpt>
      <trkpt lat="44.66341" lon="5.65916">
        <ele>1419.7</ele>
        <time>2011-06-09T14:38:46Z</time>
      </trkpt>
      <trkpt lat="44.66383" lon="5.65975">
        <ele>1416.6</ele>
        <time>2011-06-09T14:39:38Z</time>
      </trkpt>
      <trkpt lat="44.66423" lon="5.66052">
        <ele>1413.9</ele>
        <time>2011-06-09T14:40:07Z</time>
      </trkpt>
      <trkpt lat="44.66468" lon="5.66133">
        <ele>1413.3</ele>
        <time>2011-06-09T14:40:40Z</time>
      </trkpt>
      <trkpt lat="44.66525" lon="5.66251">
        <ele>1410.3</ele>
        <time>2011-06-09T14:41:19Z</time>
      </trkpt>
      <trkpt lat="44.66527" lon="5.66271">
        <ele>1410.5</ele>
        <time>2011-06-09T14:41:25Z</time>
      </trkpt>
      <trkpt lat="44.66522" lon="5.66319">
        <ele>1411.5</ele>
        <time>2011-06-09T14:41:38Z</time>
      </trkpt>
      <trkpt lat="44.66515" lon="5.66337">
        <ele>1410.4</ele>
        <time>2011-06-09T14:41:43Z</time>
      </trkpt>
      <trkpt lat="44.66514" lon="5.66356">
        <ele>1410.4</ele>
        <time>2011-06-09T14:41:48Z</time>
      </trkpt>
      <trkpt lat="44.66505" lon="5.66397">
        <ele>1409.8</ele>
        <time>2011-06-09T14:41:59Z</time>
      </trkpt>
      <trkpt lat="44.66502" lon="5.66525">
        <ele>1410.6</ele>
        <time>2011-06-09T14:42:40Z</time>
      </trkpt>
      <trkpt lat="44.665" lon="5.66531">
        <ele>1410.4</ele>
        <time>2011-06-09T14:42:42Z</time>
      </trkpt>
      <trkpt lat="44.66499" lon="5.66576">
        <ele>1408.4</ele>
        <time>2011-06-09T14:42:53Z</time>
      </trkpt>
      <trkpt lat="44.66514" lon="5.66645">
        <ele>1411</ele>
        <time>2011-06-09T14:43:09Z</time>
      </trkpt>
      <trkpt lat="44.66513" lon="5.6666">
        <ele>1412.2</ele>
        <time>2011-06-09T14:43:13Z</time>
      </trkpt>
      <trkpt lat="44.66453" lon="5.66782">
        <ele>1414.3</ele>
        <time>2011-06-09T14:43:59Z</time>
      </trkpt>
      <trkpt lat="44.66452" lon="5.66783">
        <ele>1414.4</ele>
        <time>2011-06-09T14:44:06Z</time>
      </trkpt>
      <trkpt lat="44.66452" lon="5.66786">
        <ele>1413.4</ele>
        <time>2011-06-09T14:48:30Z</time>
      </trkpt>
      <trkpt lat="44.66426" lon="5.66839">
        <ele>1407.7</ele>
        <time>2011-06-09T14:48:55Z</time>
      </trkpt>
      <trkpt lat="44.66382" lon="5.66879">
        <ele>1399.1</ele>
        <time>2011-06-09T14:49:17Z</time>
      </trkpt>
      <trkpt lat="44.66331" lon="5.66956">
        <ele>1378.2</ele>
        <time>2011-06-09T14:49:47Z</time>
      </trkpt>
      <trkpt lat="44.66312" lon="5.67011">
        <ele>1369.3</ele>
        <time>2011-06-09T14:49:59Z</time>
      </trkpt>
      <trkpt lat="44.6631" lon="5.67028">
        <ele>1365.8</ele>
        <time>2011-06-09T14:50:02Z</time>
      </trkpt>
      <trkpt lat="44.66316" lon="5.67061">
        <ele>1356.6</ele>
        <time>2011-06-09T14:50:13Z</time>
      </trkpt>
      <trkpt lat="44.66304" lon="5.67133">
        <ele>1343.3</ele>
        <time>2011-06-09T14:50:30Z</time>
      </trkpt>
      <trkpt lat="44.66317" lon="5.67159">
        <ele>1335.9</ele>
        <time>2011-06-09T14:50:39Z</time>
      </trkpt>
      <trkpt lat="44.66331" lon="5.67164">
        <ele>1332</ele>
        <time>2011-06-09T14:50:44Z</time>
      </trkpt>
      <trkpt lat="44.66342" lon="5.67178">
        <ele>1327.5</ele>
        <time>2011-06-09T14:50:50Z</time>
      </trkpt>
      <trkpt lat="44.66343" lon="5.67197">
        <ele>1326.3</ele>
        <time>2011-06-09T14:50:54Z</time>
      </trkpt>
      <trkpt lat="44.66351" lon="5.67208">
        <ele>1322.5</ele>
        <time>2011-06-09T14:50:58Z</time>
      </trkpt>
      <trkpt lat="44.66378" lon="5.67212">
        <ele>1314.1</ele>
        <time>2011-06-09T14:51:07Z</time>
      </trkpt>
      <trkpt lat="44.66388" lon="5.67225">
        <ele>1305</ele>
        <time>2011-06-09T14:51:19Z</time>
      </trkpt>
      <trkpt lat="44.66397" lon="5.67255">
        <ele>1303</ele>
        <time>2011-06-09T14:51:46Z</time>
      </trkpt>
      <trkpt lat="44.66396" lon="5.67325">
        <ele>1307.4</ele>
        <time>2011-06-09T14:52:10Z</time>
      </trkpt>
      <trkpt lat="44.66413" lon="5.67415">
        <ele>1301.8</ele>
        <time>2011-06-09T14:52:36Z</time>
      </trkpt>
      <trkpt lat="44.66432" lon="5.67491">
        <ele>1294.3</ele>
        <time>2011-06-09T14:52:53Z</time>
      </trkpt>
      <trkpt lat="44.66475" lon="5.6758">
        <ele>1275.8</ele>
        <time>2011-06-09T14:53:14Z</time>
      </trkpt>
      <trkpt lat="44.66489" lon="5.67593">
        <ele>1268.2</ele>
        <time>2011-06-09T14:53:40Z</time>
      </trkpt>
      <trkpt lat="44.66492" lon="5.67604">
        <ele>1269.3</ele>
        <time>2011-06-09T14:57:13Z</time>
      </trkpt>
      <trkpt lat="44.6648" lon="5.67579">
        <ele>1271.2</ele>
        <time>2011-06-09T14:57:47Z</time>
      </trkpt>
      <trkpt lat="44.66452" lon="5.67548">
        <ele>1275.2</ele>
        <time>2011-06-09T14:58:12Z</time>
      </trkpt>
      <trkpt lat="44.66414" lon="5.675">
        <ele>1278.4</ele>
        <time>2011-06-09T14:58:47Z</time>
      </trkpt>
      <trkpt lat="44.66398" lon="5.67459">
        <ele>1277.9</ele>
        <time>2011-06-09T14:58:59Z</time>
      </trkpt>
      <trkpt lat="44.66395" lon="5.6742">
        <ele>1273.9</ele>
        <time>2011-06-09T14:59:08Z</time>
      </trkpt>
      <trkpt lat="44.66382" lon="5.67384">
        <ele>1275.2</ele>
        <time>2011-06-09T14:59:56Z</time>
      </trkpt>
      <trkpt lat="44.66376" lon="5.67379">
        <ele>1277.7</ele>
        <time>2011-06-09T15:00:18Z</time>
      </trkpt>
      <trkpt lat="44.66369" lon="5.67398">
        <ele>1276.9</ele>
        <time>2011-06-09T15:00:27Z</time>
      </trkpt>
      <trkpt lat="44.66339" lon="5.6743">
        <ele>1268.7</ele>
        <time>2011-06-09T15:00:52Z</time>
      </trkpt>
      <trkpt lat="44.66334" lon="5.67438">
        <ele>1266.8</ele>
        <time>2011-06-09T15:00:58Z</time>
      </trkpt>
      <trkpt lat="44.66323" lon="5.67464">
        <ele>1259.7</ele>
        <time>2011-06-09T15:01:14Z</time>
      </trkpt>
      <trkpt lat="44.6625" lon="5.67557">
        <ele>1232.9</ele>
        <time>2011-06-09T15:02:03Z</time>
      </trkpt>
      <trkpt lat="44.66242" lon="5.67597">
        <ele>1224.5</ele>
        <time>2011-06-09T15:02:13Z</time>
      </trkpt>
      <trkpt lat="44.66229" lon="5.67615">
        <ele>1220.5</ele>
        <time>2011-06-09T15:02:16Z</time>
      </trkpt>
      <trkpt lat="44.66202" lon="5.67701">
        <ele>1204.3</ele>
        <time>2011-06-09T15:02:29Z</time>
      </trkpt>
      <trkpt lat="44.66202" lon="5.67716">
        <ele>1201.9</ele>
        <time>2011-06-09T15:02:32Z</time>
      </trkpt>
      <trkpt lat="44.66187" lon="5.67752">
        <ele>1197.2</ele>
        <time>2011-06-09T15:02:38Z</time>
      </trkpt>
      <trkpt lat="44.66061" lon="5.6789">
        <ele>1171</ele>
        <time>2011-06-09T15:03:35Z</time>
      </trkpt>
      <trkpt lat="44.66061" lon="5.67897">
        <ele>1169.6</ele>
        <time>2011-06-09T15:04:35Z</time>
      </trkpt>
      <trkpt lat="44.6604" lon="5.67955">
        <ele>1164.1</ele>
        <time>2011-06-09T15:04:44Z</time>
      </trkpt>
      <trkpt lat="44.66019" lon="5.67957">
        <ele>1159.7</ele>
        <time>2011-06-09T15:04:49Z</time>
      </trkpt>
      <trkpt lat="44.66007" lon="5.67966">
        <ele>1155.2</ele>
        <time>2011-06-09T15:04:55Z</time>
      </trkpt>
      <trkpt lat="44.65983" lon="5.67994">
        <ele>1147.6</ele>
        <time>2011-06-09T15:06:01Z</time>
      </trkpt>
      <trkpt lat="44.65968" lon="5.68121">
        <ele>1138.7</ele>
        <time>2011-06-09T15:06:33Z</time>
      </trkpt>
      <trkpt lat="44.65953" lon="5.6817">
        <ele>1134.3</ele>
        <time>2011-06-09T15:06:41Z</time>
      </trkpt>
      <trkpt lat="44.65942" lon="5.68184">
        <ele>1132.7</ele>
        <time>2011-06-09T15:06:45Z</time>
      </trkpt>
      <trkpt lat="44.65921" lon="5.68193">
        <ele>1130.7</ele>
        <time>2011-06-09T15:06:50Z</time>
      </trkpt>
      <trkpt lat="44.65912" lon="5.6823">
        <ele>1127.4</ele>
        <time>2011-06-09T15:06:58Z</time>
      </trkpt>
      <trkpt lat="44.65924" lon="5.68262">
        <ele>1123.9</ele>
        <time>2011-06-09T15:07:07Z</time>
      </trkpt>
      <trkpt lat="44.65998" lon="5.68314">
        <ele>1116.8</ele>
        <time>2011-06-09T15:07:31Z</time>
      </trkpt>
      <trkpt lat="44.66006" lon="5.68325">
        <ele>1115.6</ele>
        <time>2011-06-09T15:07:35Z</time>
      </trkpt>
      <trkpt lat="44.66016" lon="5.68383">
        <ele>1113</ele>
        <time>2011-06-09T15:07:46Z</time>
      </trkpt>
      <trkpt lat="44.66013" lon="5.68393">
        <ele>1111.9</ele>
        <time>2011-06-09T15:07:49Z</time>
      </trkpt>
      <trkpt lat="44.65984" lon="5.68413">
        <ele>1105.7</ele>
        <time>2011-06-09T15:07:58Z</time>
      </trkpt>
      <trkpt lat="44.65976" lon="5.68431">
        <ele>1100.9</ele>
        <time>2011-06-09T15:08:06Z</time>
      </trkpt>
      <trkpt lat="44.65995" lon="5.68488">
        <ele>1092.5</ele>
        <time>2011-06-09T15:08:20Z</time>
      </trkpt>
      <trkpt lat="44.6599" lon="5.68519">
        <ele>1088.1</ele>
        <time>2011-06-09T15:08:25Z</time>
      </trkpt>
      <trkpt lat="44.65997" lon="5.68571">
        <ele>1081.6</ele>
        <time>2011-06-09T15:08:33Z</time>
      </trkpt>
      <trkpt lat="44.65992" lon="5.68605">
        <ele>1078</ele>
        <time>2011-06-09T15:08:38Z</time>
      </trkpt>
      <trkpt lat="44.65978" lon="5.68638">
        <ele>1070.6</ele>
        <time>2011-06-09T15:08:45Z</time>
      </trkpt>
      <trkpt lat="44.65981" lon="5.68646">
        <ele>1068.5</ele>
        <time>2011-06-09T15:09:07Z</time>
      </trkpt>
      <trkpt lat="44.65965" lon="5.68684">
        <ele>1064.6</ele>
        <time>2011-06-09T15:09:58Z</time>
      </trkpt>
      <trkpt lat="44.65964" lon="5.68706">
        <ele>1062.4</ele>
        <time>2011-06-09T15:10:03Z</time>
      </trkpt>
      <trkpt lat="44.65971" lon="5.68729">
        <ele>1062.5</ele>
        <time>2011-06-09T15:10:07Z</time>
      </trkpt>
      <trkpt lat="44.65965" lon="5.68823">
        <ele>1059.4</ele>
        <time>2011-06-09T15:10:20Z</time>
      </trkpt>
      <trkpt lat="44.65959" lon="5.68835">
        <ele>1059</ele>
        <time>2011-06-09T15:10:22Z</time>
      </trkpt>
      <trkpt lat="44.65943" lon="5.68847">
        <ele>1056.1</ele>
        <time>2011-06-09T15:10:26Z</time>
      </trkpt>
      <trkpt lat="44.65941" lon="5.68861">
        <ele>1054.5</ele>
        <time>2011-06-09T15:10:29Z</time>
      </trkpt>
      <trkpt lat="44.65947" lon="5.68883">
        <ele>1053.7</ele>
        <time>2011-06-09T15:10:33Z</time>
      </trkpt>
      <trkpt lat="44.65975" lon="5.68927">
        <ele>1050.2</ele>
        <time>2011-06-09T15:10:40Z</time>
      </trkpt>
      <trkpt lat="44.65981" lon="5.68961">
        <ele>1045.4</ele>
        <time>2011-06-09T15:10:45Z</time>
      </trkpt>
      <trkpt lat="44.65979" lon="5.68987">
        <ele>1040.9</ele>
        <time>2011-06-09T15:10:49Z</time>
      </trkpt>
      <trkpt lat="44.65985" lon="5.69004">
        <ele>1038.9</ele>
        <time>2011-06-09T15:10:52Z</time>
      </trkpt>
      <trkpt lat="44.65988" lon="5.69038">
        <ele>1035.4</ele>
        <time>2011-06-09T15:10:56Z</time>
      </trkpt>
      <trkpt lat="44.65967" lon="5.69084">
        <ele>1030.7</ele>
        <time>2011-06-09T15:11:01Z</time>
      </trkpt>
      <trkpt lat="44.6595" lon="5.69182">
        <ele>1025.3</ele>
        <time>2011-06-09T15:11:11Z</time>
      </trkpt>
      <trkpt lat="44.65961" lon="5.69208">
        <ele>1024.4</ele>
        <time>2011-06-09T15:12:53Z</time>
      </trkpt>
      <trkpt lat="44.65963" lon="5.69205">
        <ele>1023.7</ele>
        <time>2011-06-09T15:17:04Z</time>
      </trkpt>
      <trkpt lat="44.6597" lon="5.69209">
        <ele>1023.3</ele>
        <time>2011-06-09T15:17:10Z</time>
      </trkpt>
      <trkpt lat="44.65984" lon="5.69234">
        <ele>1023</ele>
        <time>2011-06-09T15:17:19Z</time>
      </trkpt>
      <trkpt lat="44.65996" lon="5.69269">
        <ele>1021.5</ele>
        <time>2011-06-09T15:17:28Z</time>
      </trkpt>
      <trkpt lat="44.66" lon="5.69316">
        <ele>1021.9</ele>
        <time>2011-06-09T15:17:38Z</time>
      </trkpt>
      <trkpt lat="44.65981" lon="5.69399">
        <ele>1019.9</ele>
        <time>2011-06-09T15:17:57Z</time>
      </trkpt>
      <trkpt lat="44.65979" lon="5.69403">
        <ele>1019.9</ele>
        <time>2011-06-09T15:17:58Z</time>
      </trkpt>
      <trkpt lat="44.65971" lon="5.69455">
        <ele>1018.3</ele>
        <time>2011-06-09T15:18:09Z</time>
      </trkpt>
      <trkpt lat="44.65974" lon="5.69466">
        <ele>1019.3</ele>
        <time>2011-06-09T15:18:12Z</time>
      </trkpt>
      <trkpt lat="44.66507" lon="5.69609">
        <ele>1023.1</ele>
        <time>2011-06-09T15:20:20Z</time>
      </trkpt>
      <trkpt lat="44.66913" lon="5.69833">
        <ele>1027.5</ele>
        <time>2011-06-09T15:21:59Z</time>
      </trkpt>
      <trkpt lat="44.67045" lon="5.6979">
        <ele>1029.7</ele>
        <time>2011-06-09T15:22:30Z</time>
      </trkpt>
      <trkpt lat="44.67123" lon="5.69816">
        <ele>1029.4</ele>
        <time>2011-06-09T15:22:47Z</time>
      </trkpt>
      <trkpt lat="44.67585" lon="5.69784">
        <ele>1045.5</ele>
        <time>2011-06-09T15:24:56Z</time>
      </trkpt>
      <trkpt lat="44.67663" lon="5.69718">
        <ele>1046.6</ele>
        <time>2011-06-09T15:25:17Z</time>
      </trkpt>
      <trkpt lat="44.67863" lon="5.69398">
        <ele>1049</ele>
        <time>2011-06-09T15:26:19Z</time>
      </trkpt>
      <trkpt lat="44.67943" lon="5.69325">
        <ele>1050.5</ele>
        <time>2011-06-09T15:26:40Z</time>
      </trkpt>
      <trkpt lat="44.67973" lon="5.69311">
        <ele>1051.1</ele>
        <time>2011-06-09T15:26:48Z</time>
      </trkpt>
      <trkpt lat="44.67984" lon="5.69312">
        <ele>1051.4</ele>
        <time>2011-06-09T15:26:51Z</time>
      </trkpt>
      <trkpt lat="44.68001" lon="5.69305">
        <ele>1051.8</ele>
        <time>2011-06-09T15:26:57Z</time>
      </trkpt>
      <trkpt lat="44.68332" lon="5.69375">
        <ele>1049.6</ele>
        <time>2011-06-09T15:27:54Z</time>
      </trkpt>
      <trkpt lat="44.68424" lon="5.69351">
        <ele>1050.1</ele>
        <time>2011-06-09T15:28:12Z</time>
      </trkpt>
      <trkpt lat="44.68473" lon="5.69312">
        <ele>1051.8</ele>
        <time>2011-06-09T15:28:23Z</time>
      </trkpt>
      <trkpt lat="44.68744" lon="5.68875">
        <ele>1061.7</ele>
        <time>2011-06-09T15:30:11Z</time>
      </trkpt>
      <trkpt lat="44.6876" lon="5.68863">
        <ele>1061.6</ele>
        <time>2011-06-09T15:30:19Z</time>
      </trkpt>
      <trkpt lat="44.68763" lon="5.68848">
        <ele>1062.1</ele>
        <time>2011-06-09T15:30:48Z</time>
      </trkpt>
      <trkpt lat="44.68909" lon="5.68689">
        <ele>1074.3</ele>
        <time>2011-06-09T15:32:11Z</time>
      </trkpt>
      <trkpt lat="44.6891" lon="5.68687">
        <ele>1074.3</ele>
        <time>2011-06-09T15:32:27Z</time>
      </trkpt>
      <trkpt lat="44.68999" lon="5.68519">
        <ele>1084.9</ele>
        <time>2011-06-09T15:33:45Z</time>
      </trkpt>
      <trkpt lat="44.69047" lon="5.68439">
        <ele>1090.1</ele>
        <time>2011-06-09T15:34:25Z</time>
      </trkpt>
      <trkpt lat="44.69087" lon="5.68401">
        <ele>1093</ele>
        <time>2011-06-09T15:34:51Z</time>
      </trkpt>
      <trkpt lat="44.69147" lon="5.68377">
        <ele>1098.8</ele>
        <time>2011-06-09T15:35:23Z</time>
      </trkpt>
      <trkpt lat="44.69151" lon="5.68365">
        <ele>1098.6</ele>
        <time>2011-06-09T15:35:28Z</time>
      </trkpt>
      <trkpt lat="44.69152" lon="5.68338">
        <ele>1098.9</ele>
        <time>2011-06-09T15:35:38Z</time>
      </trkpt>
      <trkpt lat="44.69179" lon="5.68296">
        <ele>1104.3</ele>
        <time>2011-06-09T15:36:14Z</time>
      </trkpt>
      <trkpt lat="44.69208" lon="5.68268">
        <ele>1105.9</ele>
        <time>2011-06-09T15:36:38Z</time>
      </trkpt>
      <trkpt lat="44.69217" lon="5.68268">
        <ele>1106.6</ele>
        <time>2011-06-09T15:36:42Z</time>
      </trkpt>
      <trkpt lat="44.69227" lon="5.68255">
        <ele>1110</ele>
        <time>2011-06-09T15:36:51Z</time>
      </trkpt>
      <trkpt lat="44.69215" lon="5.68209">
        <ele>1113.9</ele>
        <time>2011-06-09T15:37:17Z</time>
      </trkpt>
      <trkpt lat="44.69213" lon="5.68183">
        <ele>1117.8</ele>
        <time>2011-06-09T15:37:41Z</time>
      </trkpt>
      <trkpt lat="44.6923" lon="5.68164">
        <ele>1120.1</ele>
        <time>2011-06-09T15:38:00Z</time>
      </trkpt>
      <trkpt lat="44.69238" lon="5.68135">
        <ele>1125.9</ele>
        <time>2011-06-09T15:38:23Z</time>
      </trkpt>
      <trkpt lat="44.69211" lon="5.68113">
        <ele>1128.6</ele>
        <time>2011-06-09T15:38:43Z</time>
      </trkpt>
      <trkpt lat="44.69186" lon="5.68055">
        <ele>1131.5</ele>
        <time>2011-06-09T15:39:13Z</time>
      </trkpt>
      <trkpt lat="44.69175" lon="5.68041">
        <ele>1132.5</ele>
        <time>2011-06-09T15:39:22Z</time>
      </trkpt>
      <trkpt lat="44.69154" lon="5.68028">
        <ele>1133.8</ele>
        <time>2011-06-09T15:39:36Z</time>
      </trkpt>
      <trkpt lat="44.69056" lon="5.68029">
        <ele>1140.8</ele>
        <time>2011-06-09T15:40:34Z</time>
      </trkpt>
      <trkpt lat="44.68954" lon="5.68076">
        <ele>1147.8</ele>
        <time>2011-06-09T15:41:44Z</time>
      </trkpt>
      <trkpt lat="44.6894" lon="5.68077">
        <ele>1148.9</ele>
        <time>2011-06-09T15:41:51Z</time>
      </trkpt>
      <trkpt lat="44.68875" lon="5.68058">
        <ele>1152.6</ele>
        <time>2011-06-09T15:42:27Z</time>
      </trkpt>
      <trkpt lat="44.68808" lon="5.68068">
        <ele>1156.9</ele>
        <time>2011-06-09T15:43:05Z</time>
      </trkpt>
      <trkpt lat="44.68795" lon="5.68053">
        <ele>1159.6</ele>
        <time>2011-06-09T15:43:15Z</time>
      </trkpt>
      <trkpt lat="44.68798" lon="5.68034">
        <ele>1160.2</ele>
        <time>2011-06-09T15:43:23Z</time>
      </trkpt>
      <trkpt lat="44.68869" lon="5.67903">
        <ele>1165.6</ele>
        <time>2011-06-09T15:44:30Z</time>
      </trkpt>
      <trkpt lat="44.68888" lon="5.67822">
        <ele>1171.5</ele>
        <time>2011-06-09T15:45:06Z</time>
      </trkpt>
      <trkpt lat="44.68888" lon="5.67796">
        <ele>1173.5</ele>
        <time>2011-06-09T15:45:17Z</time>
      </trkpt>
      <trkpt lat="44.6891" lon="5.67717">
        <ele>1178.1</ele>
        <time>2011-06-09T15:45:53Z</time>
      </trkpt>
      <trkpt lat="44.69029" lon="5.67612">
        <ele>1183</ele>
        <time>2011-06-09T15:47:16Z</time>
      </trkpt>
      <trkpt lat="44.69097" lon="5.67513">
        <ele>1195.7</ele>
        <time>2011-06-09T15:48:15Z</time>
      </trkpt>
      <trkpt lat="44.69125" lon="5.67434">
        <ele>1200.2</ele>
        <time>2011-06-09T15:49:04Z</time>
      </trkpt>
      <trkpt lat="44.69123" lon="5.67428">
        <ele>1202.1</ele>
        <time>2011-06-09T15:49:36Z</time>
      </trkpt>
      <trkpt lat="44.69139" lon="5.67391">
        <ele>1202.8</ele>
        <time>2011-06-09T15:49:54Z</time>
      </trkpt>
      <trkpt lat="44.69175" lon="5.67316">
        <ele>1206</ele>
        <time>2011-06-09T15:50:32Z</time>
      </trkpt>
      <trkpt lat="44.69179" lon="5.67297">
        <ele>1207.5</ele>
        <time>2011-06-09T15:50:40Z</time>
      </trkpt>
      <trkpt lat="44.69213" lon="5.67226">
        <ele>1196.2</ele>
        <time>2011-06-09T15:51:17Z</time>
      </trkpt>
      <trkpt lat="44.69236" lon="5.67158">
        <ele>1198.3</ele>
        <time>2011-06-09T15:51:50Z</time>
      </trkpt>
      <trkpt lat="44.69237" lon="5.67129">
        <ele>1199.5</ele>
        <time>2011-06-09T15:52:02Z</time>
      </trkpt>
      <trkpt lat="44.69222" lon="5.67109">
        <ele>1201.1</ele>
        <time>2011-06-09T15:52:18Z</time>
      </trkpt>
      <trkpt lat="44.69213" lon="5.67111">
        <ele>1200.8</ele>
        <time>2011-06-09T15:55:02Z</time>
      </trkpt>
      <trkpt lat="44.6921" lon="5.67114">
        <ele>1200.9</ele>
        <time>2011-06-09T15:55:32Z</time>
      </trkpt>
      <trkpt lat="44.69145" lon="5.671">
        <ele>1205.1</ele>
        <time>2011-06-09T15:56:13Z</time>
      </trkpt>
      <trkpt lat="44.68959" lon="5.67135">
        <ele>1216.1</ele>
        <time>2011-06-09T15:58:12Z</time>
      </trkpt>
      <trkpt lat="44.68955" lon="5.67138">
        <ele>1217</ele>
        <time>2011-06-09T15:58:15Z</time>
      </trkpt>
      <trkpt lat="44.68903" lon="5.67149">
        <ele>1220.5</ele>
        <time>2011-06-09T15:58:44Z</time>
      </trkpt>
      <trkpt lat="44.6889" lon="5.67132">
        <ele>1222.7</ele>
        <time>2011-06-09T15:58:54Z</time>
      </trkpt>
      <trkpt lat="44.68889" lon="5.67113">
        <ele>1222.9</ele>
        <time>2011-06-09T15:59:01Z</time>
      </trkpt>
      <trkpt lat="44.68905" lon="5.67016">
        <ele>1229</ele>
        <time>2011-06-09T15:59:47Z</time>
      </trkpt>
      <trkpt lat="44.68927" lon="5.66961">
        <ele>1231.6</ele>
        <time>2011-06-09T16:00:18Z</time>
      </trkpt>
      <trkpt lat="44.68943" lon="5.66898">
        <ele>1234.3</ele>
        <time>2011-06-09T16:00:51Z</time>
      </trkpt>
      <trkpt lat="44.68947" lon="5.66891">
        <ele>1235</ele>
        <time>2011-06-09T16:00:55Z</time>
      </trkpt>
      <trkpt lat="44.68956" lon="5.66831">
        <ele>1237.8</ele>
        <time>2011-06-09T16:01:25Z</time>
      </trkpt>
      <trkpt lat="44.68952" lon="5.66797">
        <ele>1240.8</ele>
        <time>2011-06-09T16:01:44Z</time>
      </trkpt>
      <trkpt lat="44.68939" lon="5.66778">
        <ele>1240.9</ele>
        <time>2011-06-09T16:01:56Z</time>
      </trkpt>
      <trkpt lat="44.68922" lon="5.66785">
        <ele>1242.3</ele>
        <time>2011-06-09T16:02:12Z</time>
      </trkpt>
      <trkpt lat="44.6888" lon="5.66777">
        <ele>1244.8</ele>
        <time>2011-06-09T16:02:39Z</time>
      </trkpt>
      <trkpt lat="44.68866" lon="5.66781">
        <ele>1245.8</ele>
        <time>2011-06-09T16:02:49Z</time>
      </trkpt>
      <trkpt lat="44.68846" lon="5.6678">
        <ele>1247.5</ele>
        <time>2011-06-09T16:03:08Z</time>
      </trkpt>
      <trkpt lat="44.68847" lon="5.66762">
        <ele>1246.4</ele>
        <time>2011-06-09T16:03:53Z</time>
      </trkpt>
      <trkpt lat="44.68838" lon="5.66746">
        <ele>1247.5</ele>
        <time>2011-06-09T16:04:02Z</time>
      </trkpt>
      <trkpt lat="44.68835" lon="5.66719">
        <ele>1249.6</ele>
        <time>2011-06-09T16:04:15Z</time>
      </trkpt>
      <trkpt lat="44.68846" lon="5.66679">
        <ele>1251.3</ele>
        <time>2011-06-09T16:04:34Z</time>
      </trkpt>
      <trkpt lat="44.68894" lon="5.66563">
        <ele>1257.6</ele>
        <time>2011-06-09T16:05:39Z</time>
      </trkpt>
      <trkpt lat="44.68893" lon="5.66559">
        <ele>1257.7</ele>
        <time>2011-06-09T16:05:40Z</time>
      </trkpt>
      <trkpt lat="44.6891" lon="5.66518">
        <ele>1259.6</ele>
        <time>2011-06-09T16:06:04Z</time>
      </trkpt>
      <trkpt lat="44.6892" lon="5.66454">
        <ele>1262.3</ele>
        <time>2011-06-09T16:06:35Z</time>
      </trkpt>
      <trkpt lat="44.68909" lon="5.66396">
        <ele>1265.1</ele>
        <time>2011-06-09T16:07:00Z</time>
      </trkpt>
      <trkpt lat="44.68887" lon="5.66362">
        <ele>1267.2</ele>
        <time>2011-06-09T16:07:23Z</time>
      </trkpt>
      <trkpt lat="44.68851" lon="5.66332">
        <ele>1271.4</ele>
        <time>2011-06-09T16:07:48Z</time>
      </trkpt>
      <trkpt lat="44.68829" lon="5.66233">
        <ele>1274.9</ele>
        <time>2011-06-09T16:08:32Z</time>
      </trkpt>
      <trkpt lat="44.68829" lon="5.66194">
        <ele>1276.6</ele>
        <time>2011-06-09T16:08:49Z</time>
      </trkpt>
      <trkpt lat="44.68845" lon="5.66119">
        <ele>1279.5</ele>
        <time>2011-06-09T16:09:24Z</time>
      </trkpt>
      <trkpt lat="44.68856" lon="5.66077">
        <ele>1281.8</ele>
        <time>2011-06-09T16:09:44Z</time>
      </trkpt>
      <trkpt lat="44.68879" lon="5.65987">
        <ele>1285.9</ele>
        <time>2011-06-09T16:10:27Z</time>
      </trkpt>
      <trkpt lat="44.68891" lon="5.65954">
        <ele>1288.3</ele>
        <time>2011-06-09T16:10:44Z</time>
      </trkpt>
      <trkpt lat="44.68911" lon="5.65902">
        <ele>1291.2</ele>
        <time>2011-06-09T16:11:15Z</time>
      </trkpt>
      <trkpt lat="44.68927" lon="5.65875">
        <ele>1293.3</ele>
        <time>2011-06-09T16:11:33Z</time>
      </trkpt>
      <trkpt lat="44.68948" lon="5.65829">
        <ele>1295.6</ele>
        <time>2011-06-09T16:12:01Z</time>
      </trkpt>
      <trkpt lat="44.68948" lon="5.65827">
        <ele>1296</ele>
        <time>2011-06-09T16:12:02Z</time>
      </trkpt>
      <trkpt lat="44.69016" lon="5.65713">
        <ele>1303.5</ele>
        <time>2011-06-09T16:13:17Z</time>
      </trkpt>
      <trkpt lat="44.69018" lon="5.6571">
        <ele>1303.7</ele>
        <time>2011-06-09T16:13:19Z</time>
      </trkpt>
      <trkpt lat="44.69083" lon="5.65612">
        <ele>1309.2</ele>
        <time>2011-06-09T16:14:29Z</time>
      </trkpt>
      <trkpt lat="44.69125" lon="5.65495">
        <ele>1315.2</ele>
        <time>2011-06-09T16:15:32Z</time>
      </trkpt>
      <trkpt lat="44.69121" lon="5.65448">
        <ele>1316.5</ele>
        <time>2011-06-09T16:15:54Z</time>
      </trkpt>
      <trkpt lat="44.69129" lon="5.65422">
        <ele>1318.2</ele>
        <time>2011-06-09T16:16:08Z</time>
      </trkpt>
      <trkpt lat="44.69165" lon="5.65401">
        <ele>1318</ele>
        <time>2011-06-09T16:16:32Z</time>
      </trkpt>
      <trkpt lat="44.6917" lon="5.65402">
        <ele>1318.1</ele>
        <time>2011-06-09T16:23:18Z</time>
      </trkpt>
      <trkpt lat="44.69169" lon="5.65395">
        <ele>1319</ele>
        <time>2011-06-09T16:23:36Z</time>
      </trkpt>
      <trkpt lat="44.69157" lon="5.65374">
        <ele>1318.1</ele>
        <time>2011-06-09T16:24:11Z</time>
      </trkpt>
      <trkpt lat="44.69183" lon="5.6533">
        <ele>1315</ele>
        <time>2011-06-09T16:24:24Z</time>
      </trkpt>
      <trkpt lat="44.69256" lon="5.65247">
        <ele>1298.8</ele>
        <time>2011-06-09T16:25:08Z</time>
      </trkpt>
      <trkpt lat="44.69262" lon="5.65235">
        <ele>1297.6</ele>
        <time>2011-06-09T16:25:10Z</time>
      </trkpt>
      <trkpt lat="44.69295" lon="5.65101">
        <ele>1282.8</ele>
        <time>2011-06-09T16:25:29Z</time>
      </trkpt>
      <trkpt lat="44.69306" lon="5.65092">
        <ele>1280.2</ele>
        <time>2011-06-09T16:25:32Z</time>
      </trkpt>
      <trkpt lat="44.69321" lon="5.65089">
        <ele>1275.7</ele>
        <time>2011-06-09T16:25:37Z</time>
      </trkpt>
      <trkpt lat="44.69325" lon="5.65077">
        <ele>1273.4</ele>
        <time>2011-06-09T16:25:40Z</time>
      </trkpt>
      <trkpt lat="44.69317" lon="5.65027">
        <ele>1267.4</ele>
        <time>2011-06-09T16:25:49Z</time>
      </trkpt>
      <trkpt lat="44.69299" lon="5.65017">
        <ele>1261</ele>
        <time>2011-06-09T16:25:56Z</time>
      </trkpt>
      <trkpt lat="44.69291" lon="5.64922">
        <ele>1246.4</ele>
        <time>2011-06-09T16:26:13Z</time>
      </trkpt>
      <trkpt lat="44.69298" lon="5.64897">
        <ele>1243</ele>
        <time>2011-06-09T16:26:17Z</time>
      </trkpt>
      <trkpt lat="44.69351" lon="5.64803">
        <ele>1226.2</ele>
        <time>2011-06-09T16:26:36Z</time>
      </trkpt>
      <trkpt lat="44.69514" lon="5.64663">
        <ele>1196</ele>
        <time>2011-06-09T16:27:16Z</time>
      </trkpt>
      <trkpt lat="44.69535" lon="5.64616">
        <ele>1187.8</ele>
        <time>2011-06-09T16:27:27Z</time>
      </trkpt>
      <trkpt lat="44.69534" lon="5.6458">
        <ele>1180.1</ele>
        <time>2011-06-09T16:27:36Z</time>
      </trkpt>
      <trkpt lat="44.69546" lon="5.64551">
        <ele>1175.1</ele>
        <time>2011-06-09T16:27:49Z</time>
      </trkpt>
      <trkpt lat="44.69573" lon="5.64497">
        <ele>1167.1</ele>
        <time>2011-06-09T16:28:07Z</time>
      </trkpt>
      <trkpt lat="44.69581" lon="5.64321">
        <ele>1143.1</ele>
        <time>2011-06-09T16:28:56Z</time>
      </trkpt>
      <trkpt lat="44.69583" lon="5.6431">
        <ele>1142</ele>
        <time>2011-06-09T16:29:00Z</time>
      </trkpt>
      <trkpt lat="44.69601" lon="5.64277">
        <ele>1132.8</ele>
        <time>2011-06-09T16:29:25Z</time>
      </trkpt>
      <trkpt lat="44.69615" lon="5.6424">
        <ele>1127.8</ele>
        <time>2011-06-09T16:29:38Z</time>
      </trkpt>
      <trkpt lat="44.69616" lon="5.6423">
        <ele>1128</ele>
        <time>2011-06-09T16:29:41Z</time>
      </trkpt>
      <trkpt lat="44.69604" lon="5.64177">
        <ele>1126.5</ele>
        <time>2011-06-09T16:29:50Z</time>
      </trkpt>
      <trkpt lat="44.69607" lon="5.64015">
        <ele>1117.8</ele>
        <time>2011-06-09T16:30:07Z</time>
      </trkpt>
      <trkpt lat="44.69651" lon="5.6383">
        <ele>1122.3</ele>
        <time>2011-06-09T16:30:58Z</time>
      </trkpt>
      <trkpt lat="44.69648" lon="5.63823">
        <ele>1123.2</ele>
        <time>2011-06-09T16:31:28Z</time>
      </trkpt>
    </trkseg>
  </trk>
</gpx>